<?xml version="1.0" encoding="UTF-8" standalone="no" ?>
<gpx xmlns="http://www.topografix.com/GPX/1/1" xmlns:xsi="http://www.w3.org/2001/XMLSchema-instance" xsi:schemaLocation="http://www.topografix.com/GPX/1/1 http://www.topografix.com/GPX/1/1/gpx.xsd" version="1.1" creator="VisuGPX - https://www.visugpx.com">
  <metadata>
    <name>bout de GTH </name>
    <desc><![CDATA[Un bout d\'un éventuel projet club]]></desc>
  </metadata>
  <wpt lat="43.68163" lon="3.58177">
    <ele>64</ele>
    <name><![CDATA[Start]]></name>
    <desc><![CDATA[2010-12-22 14:12:55]]></desc>
  </wpt>
  <wpt lat="43.68156" lon="3.58179">
    <ele>64</ele>
    <name><![CDATA[Lap 1]]></name>
    <desc><![CDATA[23.18km, 83:42, 16.6kph]]></desc>
  </wpt>
  <trk>
    <name><![CDATA[2010-12-22-14-12-55]]></name>
    <desc><![CDATA[83:42 - 23.2km]]></desc>
    <trkseg>
      <trkpt lat="43.68163" lon="3.58177">
        <ele>73.38</ele>
        <time>2010-12-22T14:12:56Z</time>
      </trkpt>
      <trkpt lat="43.68172" lon="3.58153">
        <ele>73.521</ele>
        <time>2010-12-22T14:13:02Z</time>
      </trkpt>
      <trkpt lat="43.68188" lon="3.58146">
        <ele>73.704</ele>
        <time>2010-12-22T14:13:07Z</time>
      </trkpt>
      <trkpt lat="43.68217" lon="3.5816">
        <ele>73.866</ele>
        <time>2010-12-22T14:13:15Z</time>
      </trkpt>
      <trkpt lat="43.68225" lon="3.58147">
        <ele>73.579</ele>
        <time>2010-12-22T14:13:19Z</time>
      </trkpt>
      <trkpt lat="43.68239" lon="3.58136">
        <ele>73.591</ele>
        <time>2010-12-22T14:13:23Z</time>
      </trkpt>
      <trkpt lat="43.68241" lon="3.58139">
        <ele>73.521</ele>
        <time>2010-12-22T14:13:24Z</time>
      </trkpt>
      <trkpt lat="43.68259" lon="3.58168">
        <ele>73.695</ele>
        <time>2010-12-22T14:13:31Z</time>
      </trkpt>
      <trkpt lat="43.68284" lon="3.58204">
        <ele>74.231</ele>
        <time>2010-12-22T14:13:39Z</time>
      </trkpt>
      <trkpt lat="43.68294" lon="3.58225">
        <ele>74.284</ele>
        <time>2010-12-22T14:13:43Z</time>
      </trkpt>
      <trkpt lat="43.68308" lon="3.58233">
        <ele>73.798</ele>
        <time>2010-12-22T14:13:47Z</time>
      </trkpt>
      <trkpt lat="43.68311" lon="3.58236">
        <ele>73.638</ele>
        <time>2010-12-22T14:13:48Z</time>
      </trkpt>
      <trkpt lat="43.68336" lon="3.58276">
        <ele>72.938</ele>
        <time>2010-12-22T14:13:56Z</time>
      </trkpt>
      <trkpt lat="43.68363" lon="3.58318">
        <ele>72.49</ele>
        <time>2010-12-22T14:14:04Z</time>
      </trkpt>
      <trkpt lat="43.68391" lon="3.58361">
        <ele>72.826</ele>
        <time>2010-12-22T14:14:12Z</time>
      </trkpt>
      <trkpt lat="43.68415" lon="3.58397">
        <ele>73.281</ele>
        <time>2010-12-22T14:14:19Z</time>
      </trkpt>
      <trkpt lat="43.68428" lon="3.58417">
        <ele>73.269</ele>
        <time>2010-12-22T14:14:23Z</time>
      </trkpt>
      <trkpt lat="43.68452" lon="3.58451">
        <ele>73.092</ele>
        <time>2010-12-22T14:14:30Z</time>
      </trkpt>
      <trkpt lat="43.68465" lon="3.58471">
        <ele>73.232</ele>
        <time>2010-12-22T14:14:34Z</time>
      </trkpt>
      <trkpt lat="43.68472" lon="3.58482">
        <ele>73.363</ele>
        <time>2010-12-22T14:14:36Z</time>
      </trkpt>
      <trkpt lat="43.68492" lon="3.58502">
        <ele>73.233</ele>
        <time>2010-12-22T14:14:41Z</time>
      </trkpt>
      <trkpt lat="43.68507" lon="3.58508">
        <ele>73.429</ele>
        <time>2010-12-22T14:14:44Z</time>
      </trkpt>
      <trkpt lat="43.6853" lon="3.58516">
        <ele>74.271</ele>
        <time>2010-12-22T14:14:49Z</time>
      </trkpt>
      <trkpt lat="43.6854" lon="3.58522">
        <ele>74.421</ele>
        <time>2010-12-22T14:14:51Z</time>
      </trkpt>
      <trkpt lat="43.68553" lon="3.58543">
        <ele>75.351</ele>
        <time>2010-12-22T14:14:55Z</time>
      </trkpt>
      <trkpt lat="43.68563" lon="3.58584">
        <ele>76.863</ele>
        <time>2010-12-22T14:15:02Z</time>
      </trkpt>
      <trkpt lat="43.68564" lon="3.58596">
        <ele>77.003</ele>
        <time>2010-12-22T14:15:04Z</time>
      </trkpt>
      <trkpt lat="43.68568" lon="3.58616">
        <ele>78.218</ele>
        <time>2010-12-22T14:15:09Z</time>
      </trkpt>
      <trkpt lat="43.68566" lon="3.58623">
        <ele>78.033</ele>
        <time>2010-12-22T14:15:12Z</time>
      </trkpt>
      <trkpt lat="43.68569" lon="3.58625">
        <ele>78.022</ele>
        <time>2010-12-22T14:15:16Z</time>
      </trkpt>
      <trkpt lat="43.68576" lon="3.58615">
        <ele>78.111</ele>
        <time>2010-12-22T14:15:19Z</time>
      </trkpt>
      <trkpt lat="43.68586" lon="3.58607">
        <ele>77.693</ele>
        <time>2010-12-22T14:15:22Z</time>
      </trkpt>
      <trkpt lat="43.68629" lon="3.58582">
        <ele>77.065</ele>
        <time>2010-12-22T14:15:31Z</time>
      </trkpt>
      <trkpt lat="43.68664" lon="3.58564">
        <ele>76.943</ele>
        <time>2010-12-22T14:15:38Z</time>
      </trkpt>
      <trkpt lat="43.68699" lon="3.58547">
        <ele>76.753</ele>
        <time>2010-12-22T14:15:45Z</time>
      </trkpt>
      <trkpt lat="43.68737" lon="3.58524">
        <ele>76.123</ele>
        <time>2010-12-22T14:15:53Z</time>
      </trkpt>
      <trkpt lat="43.68771" lon="3.58505">
        <ele>75.871</ele>
        <time>2010-12-22T14:16:00Z</time>
      </trkpt>
      <trkpt lat="43.68822" lon="3.5848">
        <ele>75.726</ele>
        <time>2010-12-22T14:16:10Z</time>
      </trkpt>
      <trkpt lat="43.68866" lon="3.58454">
        <ele>75.523</ele>
        <time>2010-12-22T14:16:19Z</time>
      </trkpt>
      <trkpt lat="43.68907" lon="3.58432">
        <ele>76.167</ele>
        <time>2010-12-22T14:16:26Z</time>
      </trkpt>
      <trkpt lat="43.6894" lon="3.58413">
        <ele>76.314</ele>
        <time>2010-12-22T14:16:32Z</time>
      </trkpt>
      <trkpt lat="43.68986" lon="3.58387">
        <ele>76.062</ele>
        <time>2010-12-22T14:16:41Z</time>
      </trkpt>
      <trkpt lat="43.69007" lon="3.58379">
        <ele>76.155</ele>
        <time>2010-12-22T14:16:45Z</time>
      </trkpt>
      <trkpt lat="43.69027" lon="3.5838">
        <ele>76.413</ele>
        <time>2010-12-22T14:16:49Z</time>
      </trkpt>
      <trkpt lat="43.6906" lon="3.584">
        <ele>76.88</ele>
        <time>2010-12-22T14:16:56Z</time>
      </trkpt>
      <trkpt lat="43.69101" lon="3.58442">
        <ele>76.514</ele>
        <time>2010-12-22T14:17:06Z</time>
      </trkpt>
      <trkpt lat="43.69139" lon="3.58475">
        <ele>76.174</ele>
        <time>2010-12-22T14:17:15Z</time>
      </trkpt>
      <trkpt lat="43.69178" lon="3.58514">
        <ele>77.182</ele>
        <time>2010-12-22T14:17:25Z</time>
      </trkpt>
      <trkpt lat="43.69191" lon="3.58525">
        <ele>76.88</ele>
        <time>2010-12-22T14:17:28Z</time>
      </trkpt>
      <trkpt lat="43.69203" lon="3.58534">
        <ele>76.865</ele>
        <time>2010-12-22T14:17:31Z</time>
      </trkpt>
      <trkpt lat="43.69226" lon="3.58536">
        <ele>76.868</ele>
        <time>2010-12-22T14:17:36Z</time>
      </trkpt>
      <trkpt lat="43.6924" lon="3.58516">
        <ele>77.172</ele>
        <time>2010-12-22T14:17:40Z</time>
      </trkpt>
      <trkpt lat="43.69244" lon="3.58502">
        <ele>77.28</ele>
        <time>2010-12-22T14:17:42Z</time>
      </trkpt>
      <trkpt lat="43.69246" lon="3.58481">
        <ele>77.233</ele>
        <time>2010-12-22T14:17:45Z</time>
      </trkpt>
      <trkpt lat="43.69248" lon="3.58459">
        <ele>77.017</ele>
        <time>2010-12-22T14:17:48Z</time>
      </trkpt>
      <trkpt lat="43.6926" lon="3.58445">
        <ele>76.538</ele>
        <time>2010-12-22T14:17:51Z</time>
      </trkpt>
      <trkpt lat="43.69285" lon="3.58447">
        <ele>76.408</ele>
        <time>2010-12-22T14:17:55Z</time>
      </trkpt>
      <trkpt lat="43.69317" lon="3.5846">
        <ele>76.321</ele>
        <time>2010-12-22T14:18:01Z</time>
      </trkpt>
      <trkpt lat="43.69357" lon="3.58469">
        <ele>76.498</ele>
        <time>2010-12-22T14:18:09Z</time>
      </trkpt>
      <trkpt lat="43.69379" lon="3.58478">
        <ele>77.088</ele>
        <time>2010-12-22T14:18:14Z</time>
      </trkpt>
      <trkpt lat="43.69397" lon="3.58474">
        <ele>76.721</ele>
        <time>2010-12-22T14:18:18Z</time>
      </trkpt>
      <trkpt lat="43.69429" lon="3.58439">
        <ele>76.868</ele>
        <time>2010-12-22T14:18:25Z</time>
      </trkpt>
      <trkpt lat="43.69476" lon="3.58398">
        <ele>75.999</ele>
        <time>2010-12-22T14:18:34Z</time>
      </trkpt>
      <trkpt lat="43.69511" lon="3.58376">
        <ele>75.938</ele>
        <time>2010-12-22T14:18:41Z</time>
      </trkpt>
      <trkpt lat="43.69554" lon="3.58346">
        <ele>75.449</ele>
        <time>2010-12-22T14:18:50Z</time>
      </trkpt>
      <trkpt lat="43.696" lon="3.58315">
        <ele>75.272</ele>
        <time>2010-12-22T14:18:59Z</time>
      </trkpt>
      <trkpt lat="43.69638" lon="3.58303">
        <ele>75.121</ele>
        <time>2010-12-22T14:19:06Z</time>
      </trkpt>
      <trkpt lat="43.69682" lon="3.58305">
        <ele>75.825</ele>
        <time>2010-12-22T14:19:14Z</time>
      </trkpt>
      <trkpt lat="43.69698" lon="3.58306">
        <ele>75.971</ele>
        <time>2010-12-22T14:19:18Z</time>
      </trkpt>
      <trkpt lat="43.69715" lon="3.58306">
        <ele>75.96</ele>
        <time>2010-12-22T14:19:24Z</time>
      </trkpt>
      <trkpt lat="43.69745" lon="3.58307">
        <ele>75.534</ele>
        <time>2010-12-22T14:19:31Z</time>
      </trkpt>
      <trkpt lat="43.69771" lon="3.5831">
        <ele>76.443</ele>
        <time>2010-12-22T14:19:37Z</time>
      </trkpt>
      <trkpt lat="43.69795" lon="3.58313">
        <ele>76.706</ele>
        <time>2010-12-22T14:19:43Z</time>
      </trkpt>
      <trkpt lat="43.69798" lon="3.58315">
        <ele>76.711</ele>
        <time>2010-12-22T14:19:44Z</time>
      </trkpt>
      <trkpt lat="43.69825" lon="3.58316">
        <ele>77.175</ele>
        <time>2010-12-22T14:19:50Z</time>
      </trkpt>
      <trkpt lat="43.69845" lon="3.583">
        <ele>77.63</ele>
        <time>2010-12-22T14:19:55Z</time>
      </trkpt>
      <trkpt lat="43.69877" lon="3.58274">
        <ele>77.926</ele>
        <time>2010-12-22T14:20:02Z</time>
      </trkpt>
      <trkpt lat="43.69905" lon="3.5826">
        <ele>78.662</ele>
        <time>2010-12-22T14:20:08Z</time>
      </trkpt>
      <trkpt lat="43.69923" lon="3.58257">
        <ele>78.657</ele>
        <time>2010-12-22T14:20:12Z</time>
      </trkpt>
      <trkpt lat="43.69943" lon="3.58262">
        <ele>79.594</ele>
        <time>2010-12-22T14:20:17Z</time>
      </trkpt>
      <trkpt lat="43.6997" lon="3.58273">
        <ele>80.376</ele>
        <time>2010-12-22T14:20:23Z</time>
      </trkpt>
      <trkpt lat="43.69995" lon="3.58269">
        <ele>79.811</ele>
        <time>2010-12-22T14:20:28Z</time>
      </trkpt>
      <trkpt lat="43.70008" lon="3.58258">
        <ele>79.713</ele>
        <time>2010-12-22T14:20:31Z</time>
      </trkpt>
      <trkpt lat="43.7002" lon="3.58245">
        <ele>79.697</ele>
        <time>2010-12-22T14:20:34Z</time>
      </trkpt>
      <trkpt lat="43.7005" lon="3.58194">
        <ele>80.52</ele>
        <time>2010-12-22T14:20:44Z</time>
      </trkpt>
      <trkpt lat="43.70066" lon="3.58164">
        <ele>80.519</ele>
        <time>2010-12-22T14:20:49Z</time>
      </trkpt>
      <trkpt lat="43.70085" lon="3.58146">
        <ele>80.02</ele>
        <time>2010-12-22T14:20:53Z</time>
      </trkpt>
      <trkpt lat="43.70129" lon="3.58117">
        <ele>80.054</ele>
        <time>2010-12-22T14:21:02Z</time>
      </trkpt>
      <trkpt lat="43.70154" lon="3.58101">
        <ele>80.429</ele>
        <time>2010-12-22T14:21:08Z</time>
      </trkpt>
      <trkpt lat="43.70182" lon="3.58097">
        <ele>81.453</ele>
        <time>2010-12-22T14:21:15Z</time>
      </trkpt>
      <trkpt lat="43.70195" lon="3.58099">
        <ele>81.642</ele>
        <time>2010-12-22T14:21:18Z</time>
      </trkpt>
      <trkpt lat="43.70215" lon="3.58111">
        <ele>82.289</ele>
        <time>2010-12-22T14:21:23Z</time>
      </trkpt>
      <trkpt lat="43.7024" lon="3.58111">
        <ele>83.177</ele>
        <time>2010-12-22T14:21:29Z</time>
      </trkpt>
      <trkpt lat="43.70274" lon="3.58097">
        <ele>83.709</ele>
        <time>2010-12-22T14:21:37Z</time>
      </trkpt>
      <trkpt lat="43.70302" lon="3.58091">
        <ele>84.675</ele>
        <time>2010-12-22T14:21:44Z</time>
      </trkpt>
      <trkpt lat="43.70332" lon="3.58097">
        <ele>85.035</ele>
        <time>2010-12-22T14:21:51Z</time>
      </trkpt>
      <trkpt lat="43.70371" lon="3.58105">
        <ele>86.47</ele>
        <time>2010-12-22T14:22:00Z</time>
      </trkpt>
      <trkpt lat="43.70401" lon="3.58114">
        <ele>87.497</ele>
        <time>2010-12-22T14:22:07Z</time>
      </trkpt>
      <trkpt lat="43.70437" lon="3.58136">
        <ele>87.722</ele>
        <time>2010-12-22T14:22:16Z</time>
      </trkpt>
      <trkpt lat="43.70477" lon="3.58157">
        <ele>88.531</ele>
        <time>2010-12-22T14:22:26Z</time>
      </trkpt>
      <trkpt lat="43.70486" lon="3.58151">
        <ele>87.924</ele>
        <time>2010-12-22T14:22:30Z</time>
      </trkpt>
      <trkpt lat="43.70491" lon="3.58152">
        <ele>87.886</ele>
        <time>2010-12-22T14:22:32Z</time>
      </trkpt>
      <trkpt lat="43.70516" lon="3.58154">
        <ele>89.097</ele>
        <time>2010-12-22T14:22:40Z</time>
      </trkpt>
      <trkpt lat="43.70556" lon="3.58154">
        <ele>89.862</ele>
        <time>2010-12-22T14:22:51Z</time>
      </trkpt>
      <trkpt lat="43.70596" lon="3.58156">
        <ele>90.484</ele>
        <time>2010-12-22T14:23:02Z</time>
      </trkpt>
      <trkpt lat="43.70631" lon="3.58166">
        <ele>91.399</ele>
        <time>2010-12-22T14:23:12Z</time>
      </trkpt>
      <trkpt lat="43.70664" lon="3.58178">
        <ele>92.694</ele>
        <time>2010-12-22T14:23:22Z</time>
      </trkpt>
      <trkpt lat="43.70692" lon="3.58192">
        <ele>94.425</ele>
        <time>2010-12-22T14:23:31Z</time>
      </trkpt>
      <trkpt lat="43.70719" lon="3.58202">
        <ele>95.508</ele>
        <time>2010-12-22T14:23:40Z</time>
      </trkpt>
      <trkpt lat="43.70749" lon="3.58205">
        <ele>96.63</ele>
        <time>2010-12-22T14:23:49Z</time>
      </trkpt>
      <trkpt lat="43.70777" lon="3.58204">
        <ele>98.334</ele>
        <time>2010-12-22T14:23:58Z</time>
      </trkpt>
      <trkpt lat="43.70802" lon="3.58203">
        <ele>100.174</ele>
        <time>2010-12-22T14:24:06Z</time>
      </trkpt>
      <trkpt lat="43.70818" lon="3.58205">
        <ele>101.233</ele>
        <time>2010-12-22T14:24:11Z</time>
      </trkpt>
      <trkpt lat="43.70846" lon="3.58205">
        <ele>103.067</ele>
        <time>2010-12-22T14:24:20Z</time>
      </trkpt>
      <trkpt lat="43.70882" lon="3.58202">
        <ele>104.951</ele>
        <time>2010-12-22T14:24:32Z</time>
      </trkpt>
      <trkpt lat="43.70906" lon="3.58201">
        <ele>106.463</ele>
        <time>2010-12-22T14:24:40Z</time>
      </trkpt>
      <trkpt lat="43.7092" lon="3.58202">
        <ele>107.445</ele>
        <time>2010-12-22T14:24:45Z</time>
      </trkpt>
      <trkpt lat="43.70949" lon="3.5821">
        <ele>109.176</ele>
        <time>2010-12-22T14:24:55Z</time>
      </trkpt>
      <trkpt lat="43.70968" lon="3.5821">
        <ele>111.028</ele>
        <time>2010-12-22T14:25:02Z</time>
      </trkpt>
      <trkpt lat="43.70996" lon="3.58208">
        <ele>113.347</ele>
        <time>2010-12-22T14:25:12Z</time>
      </trkpt>
      <trkpt lat="43.71016" lon="3.582">
        <ele>115.445</ele>
        <time>2010-12-22T14:25:19Z</time>
      </trkpt>
      <trkpt lat="43.71039" lon="3.58202">
        <ele>117.303</ele>
        <time>2010-12-22T14:25:27Z</time>
      </trkpt>
      <trkpt lat="43.71061" lon="3.58202">
        <ele>118.814</ele>
        <time>2010-12-22T14:25:35Z</time>
      </trkpt>
      <trkpt lat="43.71091" lon="3.58196">
        <ele>121.891</ele>
        <time>2010-12-22T14:25:46Z</time>
      </trkpt>
      <trkpt lat="43.71102" lon="3.58193">
        <ele>122.807</ele>
        <time>2010-12-22T14:25:50Z</time>
      </trkpt>
      <trkpt lat="43.71114" lon="3.58203">
        <ele>124.388</ele>
        <time>2010-12-22T14:25:55Z</time>
      </trkpt>
      <trkpt lat="43.71118" lon="3.58217">
        <ele>124.688</ele>
        <time>2010-12-22T14:25:58Z</time>
      </trkpt>
      <trkpt lat="43.71132" lon="3.58268">
        <ele>124.574</ele>
        <time>2010-12-22T14:26:08Z</time>
      </trkpt>
      <trkpt lat="43.71143" lon="3.58311">
        <ele>123.977</ele>
        <time>2010-12-22T14:26:16Z</time>
      </trkpt>
      <trkpt lat="43.71145" lon="3.58335">
        <ele>123.866</ele>
        <time>2010-12-22T14:26:20Z</time>
      </trkpt>
      <trkpt lat="43.71146" lon="3.58358">
        <ele>123.494</ele>
        <time>2010-12-22T14:26:24Z</time>
      </trkpt>
      <trkpt lat="43.71159" lon="3.58411">
        <ele>121.805</ele>
        <time>2010-12-22T14:26:33Z</time>
      </trkpt>
      <trkpt lat="43.7117" lon="3.58457">
        <ele>120.393</ele>
        <time>2010-12-22T14:26:41Z</time>
      </trkpt>
      <trkpt lat="43.71182" lon="3.58516">
        <ele>119.176</ele>
        <time>2010-12-22T14:26:51Z</time>
      </trkpt>
      <trkpt lat="43.71187" lon="3.58552">
        <ele>118.57</ele>
        <time>2010-12-22T14:26:58Z</time>
      </trkpt>
      <trkpt lat="43.71186" lon="3.58605">
        <ele>118.082</ele>
        <time>2010-12-22T14:27:07Z</time>
      </trkpt>
      <trkpt lat="43.71184" lon="3.58646">
        <ele>117.711</ele>
        <time>2010-12-22T14:27:15Z</time>
      </trkpt>
      <trkpt lat="43.71186" lon="3.58685">
        <ele>118.231</ele>
        <time>2010-12-22T14:27:23Z</time>
      </trkpt>
      <trkpt lat="43.71193" lon="3.58704">
        <ele>118.765</ele>
        <time>2010-12-22T14:27:28Z</time>
      </trkpt>
      <trkpt lat="43.71204" lon="3.58729">
        <ele>120.77</ele>
        <time>2010-12-22T14:27:35Z</time>
      </trkpt>
      <trkpt lat="43.71215" lon="3.58743">
        <ele>122.281</ele>
        <time>2010-12-22T14:27:41Z</time>
      </trkpt>
      <trkpt lat="43.71228" lon="3.58758">
        <ele>124.329</ele>
        <time>2010-12-22T14:27:48Z</time>
      </trkpt>
      <trkpt lat="43.7124" lon="3.58779">
        <ele>126.469</ele>
        <time>2010-12-22T14:27:56Z</time>
      </trkpt>
      <trkpt lat="43.71257" lon="3.58802">
        <ele>129.033</ele>
        <time>2010-12-22T14:28:06Z</time>
      </trkpt>
      <trkpt lat="43.71266" lon="3.58811">
        <ele>130.008</ele>
        <time>2010-12-22T14:28:11Z</time>
      </trkpt>
      <trkpt lat="43.71276" lon="3.58828">
        <ele>132.119</ele>
        <time>2010-12-22T14:28:18Z</time>
      </trkpt>
      <trkpt lat="43.71287" lon="3.58849">
        <ele>134.071</ele>
        <time>2010-12-22T14:28:26Z</time>
      </trkpt>
      <trkpt lat="43.71297" lon="3.58868">
        <ele>135.817</ele>
        <time>2010-12-22T14:28:34Z</time>
      </trkpt>
      <trkpt lat="43.71309" lon="3.58888">
        <ele>136.539</ele>
        <time>2010-12-22T14:28:42Z</time>
      </trkpt>
      <trkpt lat="43.71323" lon="3.58904">
        <ele>137.59</ele>
        <time>2010-12-22T14:28:49Z</time>
      </trkpt>
      <trkpt lat="43.7134" lon="3.58926">
        <ele>137.385</ele>
        <time>2010-12-22T14:28:57Z</time>
      </trkpt>
      <trkpt lat="43.71359" lon="3.58948">
        <ele>136.601</ele>
        <time>2010-12-22T14:29:06Z</time>
      </trkpt>
      <trkpt lat="43.71377" lon="3.58974">
        <ele>136.725</ele>
        <time>2010-12-22T14:29:15Z</time>
      </trkpt>
      <trkpt lat="43.71391" lon="3.59006">
        <ele>136.844</ele>
        <time>2010-12-22T14:29:24Z</time>
      </trkpt>
      <trkpt lat="43.71397" lon="3.59021">
        <ele>136.97</ele>
        <time>2010-12-22T14:29:29Z</time>
      </trkpt>
      <trkpt lat="43.71408" lon="3.59053">
        <ele>137.079</ele>
        <time>2010-12-22T14:29:38Z</time>
      </trkpt>
      <trkpt lat="43.7141" lon="3.59081">
        <ele>136.876</ele>
        <time>2010-12-22T14:29:45Z</time>
      </trkpt>
      <trkpt lat="43.71418" lon="3.591">
        <ele>135.924</ele>
        <time>2010-12-22T14:29:51Z</time>
      </trkpt>
      <trkpt lat="43.71433" lon="3.59108">
        <ele>135.603</ele>
        <time>2010-12-22T14:29:56Z</time>
      </trkpt>
      <trkpt lat="43.71452" lon="3.59109">
        <ele>135.675</ele>
        <time>2010-12-22T14:30:03Z</time>
      </trkpt>
      <trkpt lat="43.71478" lon="3.59107">
        <ele>137.439</ele>
        <time>2010-12-22T14:30:12Z</time>
      </trkpt>
      <trkpt lat="43.71501" lon="3.59105">
        <ele>139.089</ele>
        <time>2010-12-22T14:30:21Z</time>
      </trkpt>
      <trkpt lat="43.71524" lon="3.59104">
        <ele>139.904</ele>
        <time>2010-12-22T14:30:29Z</time>
      </trkpt>
      <trkpt lat="43.71532" lon="3.59111">
        <ele>140.443</ele>
        <time>2010-12-22T14:30:33Z</time>
      </trkpt>
      <trkpt lat="43.71529" lon="3.59126">
        <ele>140.58</ele>
        <time>2010-12-22T14:30:37Z</time>
      </trkpt>
      <trkpt lat="43.71528" lon="3.59129">
        <ele>140.75</ele>
        <time>2010-12-22T14:30:38Z</time>
      </trkpt>
      <trkpt lat="43.71509" lon="3.59156">
        <ele>144.603</ele>
        <time>2010-12-22T14:30:49Z</time>
      </trkpt>
      <trkpt lat="43.715" lon="3.59174">
        <ele>146.572</ele>
        <time>2010-12-22T14:30:56Z</time>
      </trkpt>
      <trkpt lat="43.71488" lon="3.59193">
        <ele>148.463</ele>
        <time>2010-12-22T14:31:04Z</time>
      </trkpt>
      <trkpt lat="43.71473" lon="3.59213">
        <ele>150.883</ele>
        <time>2010-12-22T14:31:13Z</time>
      </trkpt>
      <trkpt lat="43.71459" lon="3.59228">
        <ele>152.078</ele>
        <time>2010-12-22T14:31:20Z</time>
      </trkpt>
      <trkpt lat="43.71445" lon="3.59239">
        <ele>151.754</ele>
        <time>2010-12-22T14:31:25Z</time>
      </trkpt>
      <trkpt lat="43.71432" lon="3.59253">
        <ele>151.151</ele>
        <time>2010-12-22T14:31:31Z</time>
      </trkpt>
      <trkpt lat="43.71423" lon="3.59274">
        <ele>150.574</ele>
        <time>2010-12-22T14:31:36Z</time>
      </trkpt>
      <trkpt lat="43.71417" lon="3.59296">
        <ele>148.532</ele>
        <time>2010-12-22T14:31:40Z</time>
      </trkpt>
      <trkpt lat="43.71414" lon="3.59322">
        <ele>146.043</ele>
        <time>2010-12-22T14:31:45Z</time>
      </trkpt>
      <trkpt lat="43.7141" lon="3.59346">
        <ele>143.808</ele>
        <time>2010-12-22T14:31:50Z</time>
      </trkpt>
      <trkpt lat="43.71422" lon="3.59374">
        <ele>139.912</ele>
        <time>2010-12-22T14:31:56Z</time>
      </trkpt>
      <trkpt lat="43.7144" lon="3.59406">
        <ele>136.132</ele>
        <time>2010-12-22T14:32:02Z</time>
      </trkpt>
      <trkpt lat="43.71461" lon="3.59455">
        <ele>130.101</ele>
        <time>2010-12-22T14:32:10Z</time>
      </trkpt>
      <trkpt lat="43.71469" lon="3.59477">
        <ele>127.885</ele>
        <time>2010-12-22T14:32:13Z</time>
      </trkpt>
      <trkpt lat="43.71471" lon="3.59495">
        <ele>126.563</ele>
        <time>2010-12-22T14:32:17Z</time>
      </trkpt>
      <trkpt lat="43.71468" lon="3.59511">
        <ele>126.13</ele>
        <time>2010-12-22T14:32:23Z</time>
      </trkpt>
      <trkpt lat="43.71461" lon="3.59531">
        <ele>126.837</ele>
        <time>2010-12-22T14:32:30Z</time>
      </trkpt>
      <trkpt lat="43.71455" lon="3.59553">
        <ele>129.179</ele>
        <time>2010-12-22T14:32:38Z</time>
      </trkpt>
      <trkpt lat="43.71455" lon="3.59575">
        <ele>131.539</ele>
        <time>2010-12-22T14:32:46Z</time>
      </trkpt>
      <trkpt lat="43.71452" lon="3.596">
        <ele>134.241</ele>
        <time>2010-12-22T14:32:55Z</time>
      </trkpt>
      <trkpt lat="43.7145" lon="3.59619">
        <ele>136.418</ele>
        <time>2010-12-22T14:33:03Z</time>
      </trkpt>
      <trkpt lat="43.71449" lon="3.59637">
        <ele>138.478</ele>
        <time>2010-12-22T14:33:10Z</time>
      </trkpt>
      <trkpt lat="43.71448" lon="3.5966">
        <ele>140.822</ele>
        <time>2010-12-22T14:33:19Z</time>
      </trkpt>
      <trkpt lat="43.71447" lon="3.59681">
        <ele>142.373</ele>
        <time>2010-12-22T14:33:27Z</time>
      </trkpt>
      <trkpt lat="43.71447" lon="3.59706">
        <ele>143.54</ele>
        <time>2010-12-22T14:33:36Z</time>
      </trkpt>
      <trkpt lat="43.71447" lon="3.59727">
        <ele>144.812</ele>
        <time>2010-12-22T14:33:43Z</time>
      </trkpt>
      <trkpt lat="43.71442" lon="3.59749">
        <ele>146.389</ele>
        <time>2010-12-22T14:33:51Z</time>
      </trkpt>
      <trkpt lat="43.71439" lon="3.59765">
        <ele>147.046</ele>
        <time>2010-12-22T14:33:57Z</time>
      </trkpt>
      <trkpt lat="43.71436" lon="3.59783">
        <ele>148.647</ele>
        <time>2010-12-22T14:34:04Z</time>
      </trkpt>
      <trkpt lat="43.71432" lon="3.59807">
        <ele>150.881</ele>
        <time>2010-12-22T14:34:14Z</time>
      </trkpt>
      <trkpt lat="43.71429" lon="3.59828">
        <ele>152.584</ele>
        <time>2010-12-22T14:34:23Z</time>
      </trkpt>
      <trkpt lat="43.71429" lon="3.59844">
        <ele>154.008</ele>
        <time>2010-12-22T14:34:30Z</time>
      </trkpt>
      <trkpt lat="43.7143" lon="3.59862">
        <ele>154.444</ele>
        <time>2010-12-22T14:34:37Z</time>
      </trkpt>
      <trkpt lat="43.7143" lon="3.59879">
        <ele>155.496</ele>
        <time>2010-12-22T14:34:43Z</time>
      </trkpt>
      <trkpt lat="43.71427" lon="3.59903">
        <ele>156.075</ele>
        <time>2010-12-22T14:34:52Z</time>
      </trkpt>
      <trkpt lat="43.71418" lon="3.59924">
        <ele>157.271</ele>
        <time>2010-12-22T14:35:00Z</time>
      </trkpt>
      <trkpt lat="43.71414" lon="3.5994">
        <ele>159.161</ele>
        <time>2010-12-22T14:35:06Z</time>
      </trkpt>
      <trkpt lat="43.71421" lon="3.59951">
        <ele>160.056</ele>
        <time>2010-12-22T14:35:12Z</time>
      </trkpt>
      <trkpt lat="43.7143" lon="3.59965">
        <ele>161.716</ele>
        <time>2010-12-22T14:35:19Z</time>
      </trkpt>
      <trkpt lat="43.71427" lon="3.59977">
        <ele>163.989</ele>
        <time>2010-12-22T14:35:24Z</time>
      </trkpt>
      <trkpt lat="43.71425" lon="3.59979">
        <ele>164.215</ele>
        <time>2010-12-22T14:35:25Z</time>
      </trkpt>
      <trkpt lat="43.7141" lon="3.59999">
        <ele>168.439</ele>
        <time>2010-12-22T14:35:35Z</time>
      </trkpt>
      <trkpt lat="43.71404" lon="3.60009">
        <ele>169.723</ele>
        <time>2010-12-22T14:35:40Z</time>
      </trkpt>
      <trkpt lat="43.71404" lon="3.60014">
        <ele>169.882</ele>
        <time>2010-12-22T14:35:42Z</time>
      </trkpt>
      <trkpt lat="43.71416" lon="3.60023">
        <ele>171.879</ele>
        <time>2010-12-22T14:35:49Z</time>
      </trkpt>
      <trkpt lat="43.71425" lon="3.60029">
        <ele>173.507</ele>
        <time>2010-12-22T14:35:55Z</time>
      </trkpt>
      <trkpt lat="43.71435" lon="3.60041">
        <ele>175.906</ele>
        <time>2010-12-22T14:36:02Z</time>
      </trkpt>
      <trkpt lat="43.71431" lon="3.60052">
        <ele>177.764</ele>
        <time>2010-12-22T14:36:07Z</time>
      </trkpt>
      <trkpt lat="43.7142" lon="3.60061">
        <ele>179.846</ele>
        <time>2010-12-22T14:36:13Z</time>
      </trkpt>
      <trkpt lat="43.71414" lon="3.60072">
        <ele>181.102</ele>
        <time>2010-12-22T14:36:18Z</time>
      </trkpt>
      <trkpt lat="43.71406" lon="3.60082">
        <ele>182.5</ele>
        <time>2010-12-22T14:36:24Z</time>
      </trkpt>
      <trkpt lat="43.71399" lon="3.60094">
        <ele>184.066</ele>
        <time>2010-12-22T14:36:30Z</time>
      </trkpt>
      <trkpt lat="43.71401" lon="3.60103">
        <ele>185.525</ele>
        <time>2010-12-22T14:36:34Z</time>
      </trkpt>
      <trkpt lat="43.7141" lon="3.60115">
        <ele>187.995</ele>
        <time>2010-12-22T14:36:41Z</time>
      </trkpt>
      <trkpt lat="43.71418" lon="3.60128">
        <ele>190.445</ele>
        <time>2010-12-22T14:36:48Z</time>
      </trkpt>
      <trkpt lat="43.71427" lon="3.60142">
        <ele>192.198</ele>
        <time>2010-12-22T14:36:55Z</time>
      </trkpt>
      <trkpt lat="43.71436" lon="3.60158">
        <ele>194.121</ele>
        <time>2010-12-22T14:37:03Z</time>
      </trkpt>
      <trkpt lat="43.71442" lon="3.60175">
        <ele>194.754</ele>
        <time>2010-12-22T14:37:10Z</time>
      </trkpt>
      <trkpt lat="43.71445" lon="3.60179">
        <ele>194.333</ele>
        <time>2010-12-22T14:37:12Z</time>
      </trkpt>
      <trkpt lat="43.71461" lon="3.60185">
        <ele>195.193</ele>
        <time>2010-12-22T14:37:20Z</time>
      </trkpt>
      <trkpt lat="43.71478" lon="3.60197">
        <ele>196.565</ele>
        <time>2010-12-22T14:37:29Z</time>
      </trkpt>
      <trkpt lat="43.71494" lon="3.60213">
        <ele>197.665</ele>
        <time>2010-12-22T14:37:38Z</time>
      </trkpt>
      <trkpt lat="43.7151" lon="3.60228">
        <ele>198.876</ele>
        <time>2010-12-22T14:37:47Z</time>
      </trkpt>
      <trkpt lat="43.71526" lon="3.60235">
        <ele>199.636</ele>
        <time>2010-12-22T14:37:55Z</time>
      </trkpt>
      <trkpt lat="43.71541" lon="3.60238">
        <ele>200.694</ele>
        <time>2010-12-22T14:38:02Z</time>
      </trkpt>
      <trkpt lat="43.71558" lon="3.6024">
        <ele>202.157</ele>
        <time>2010-12-22T14:38:10Z</time>
      </trkpt>
      <trkpt lat="43.71572" lon="3.60238">
        <ele>202.349</ele>
        <time>2010-12-22T14:38:16Z</time>
      </trkpt>
      <trkpt lat="43.71586" lon="3.60235">
        <ele>203.502</ele>
        <time>2010-12-22T14:38:23Z</time>
      </trkpt>
      <trkpt lat="43.71599" lon="3.60233">
        <ele>204.732</ele>
        <time>2010-12-22T14:38:29Z</time>
      </trkpt>
      <trkpt lat="43.7162" lon="3.60231">
        <ele>205.946</ele>
        <time>2010-12-22T14:38:39Z</time>
      </trkpt>
      <trkpt lat="43.71637" lon="3.60224">
        <ele>207.058</ele>
        <time>2010-12-22T14:38:46Z</time>
      </trkpt>
      <trkpt lat="43.71647" lon="3.60221">
        <ele>207.824</ele>
        <time>2010-12-22T14:38:51Z</time>
      </trkpt>
      <trkpt lat="43.71666" lon="3.60214">
        <ele>209.063</ele>
        <time>2010-12-22T14:38:59Z</time>
      </trkpt>
      <trkpt lat="43.7168" lon="3.6021">
        <ele>209.853</ele>
        <time>2010-12-22T14:39:06Z</time>
      </trkpt>
      <trkpt lat="43.71694" lon="3.60206">
        <ele>210.821</ele>
        <time>2010-12-22T14:39:13Z</time>
      </trkpt>
      <trkpt lat="43.71712" lon="3.60204">
        <ele>212.031</ele>
        <time>2010-12-22T14:39:21Z</time>
      </trkpt>
      <trkpt lat="43.71726" lon="3.60211">
        <ele>213.104</ele>
        <time>2010-12-22T14:39:27Z</time>
      </trkpt>
      <trkpt lat="43.71739" lon="3.60217">
        <ele>214.164</ele>
        <time>2010-12-22T14:39:33Z</time>
      </trkpt>
      <trkpt lat="43.71749" lon="3.6021">
        <ele>215.354</ele>
        <time>2010-12-22T14:39:38Z</time>
      </trkpt>
      <trkpt lat="43.71766" lon="3.60185">
        <ele>216.968</ele>
        <time>2010-12-22T14:39:47Z</time>
      </trkpt>
      <trkpt lat="43.71781" lon="3.6018">
        <ele>217.14</ele>
        <time>2010-12-22T14:39:53Z</time>
      </trkpt>
      <trkpt lat="43.71801" lon="3.60177">
        <ele>216.422</ele>
        <time>2010-12-22T14:39:59Z</time>
      </trkpt>
      <trkpt lat="43.71821" lon="3.6016">
        <ele>215.867</ele>
        <time>2010-12-22T14:40:06Z</time>
      </trkpt>
      <trkpt lat="43.71846" lon="3.60143">
        <ele>215.868</ele>
        <time>2010-12-22T14:40:15Z</time>
      </trkpt>
      <trkpt lat="43.71867" lon="3.60139">
        <ele>215.907</ele>
        <time>2010-12-22T14:40:22Z</time>
      </trkpt>
      <trkpt lat="43.71889" lon="3.6013">
        <ele>216.672</ele>
        <time>2010-12-22T14:40:30Z</time>
      </trkpt>
      <trkpt lat="43.71899" lon="3.60122">
        <ele>216.51</ele>
        <time>2010-12-22T14:40:34Z</time>
      </trkpt>
      <trkpt lat="43.71916" lon="3.60116">
        <ele>215.756</ele>
        <time>2010-12-22T14:40:38Z</time>
      </trkpt>
      <trkpt lat="43.71925" lon="3.60114">
        <ele>214.864</ele>
        <time>2010-12-22T14:40:40Z</time>
      </trkpt>
      <trkpt lat="43.71944" lon="3.60117">
        <ele>213.592</ele>
        <time>2010-12-22T14:40:46Z</time>
      </trkpt>
      <trkpt lat="43.71955" lon="3.6012">
        <ele>213.439</ele>
        <time>2010-12-22T14:40:53Z</time>
      </trkpt>
      <trkpt lat="43.71962" lon="3.60122">
        <ele>213.286</ele>
        <time>2010-12-22T14:41:00Z</time>
      </trkpt>
      <trkpt lat="43.71968" lon="3.60124">
        <ele>213.056</ele>
        <time>2010-12-22T14:41:05Z</time>
      </trkpt>
      <trkpt lat="43.71982" lon="3.60128">
        <ele>212.913</ele>
        <time>2010-12-22T14:41:11Z</time>
      </trkpt>
      <trkpt lat="43.72" lon="3.60123">
        <ele>212.932</ele>
        <time>2010-12-22T14:41:18Z</time>
      </trkpt>
      <trkpt lat="43.72021" lon="3.60121">
        <ele>214.603</ele>
        <time>2010-12-22T14:41:26Z</time>
      </trkpt>
      <trkpt lat="43.72036" lon="3.60125">
        <ele>215.942</ele>
        <time>2010-12-22T14:41:33Z</time>
      </trkpt>
      <trkpt lat="43.72052" lon="3.60133">
        <ele>216.621</ele>
        <time>2010-12-22T14:41:40Z</time>
      </trkpt>
      <trkpt lat="43.72069" lon="3.60147">
        <ele>218.725</ele>
        <time>2010-12-22T14:41:48Z</time>
      </trkpt>
      <trkpt lat="43.72085" lon="3.6016">
        <ele>220.464</ele>
        <time>2010-12-22T14:41:56Z</time>
      </trkpt>
      <trkpt lat="43.721" lon="3.60172">
        <ele>221.95</ele>
        <time>2010-12-22T14:42:04Z</time>
      </trkpt>
      <trkpt lat="43.72111" lon="3.60186">
        <ele>222.993</ele>
        <time>2010-12-22T14:42:10Z</time>
      </trkpt>
      <trkpt lat="43.72121" lon="3.60216">
        <ele>223.904</ele>
        <time>2010-12-22T14:42:19Z</time>
      </trkpt>
      <trkpt lat="43.72133" lon="3.60245">
        <ele>223.091</ele>
        <time>2010-12-22T14:42:26Z</time>
      </trkpt>
      <trkpt lat="43.72138" lon="3.6027">
        <ele>221.824</ele>
        <time>2010-12-22T14:42:31Z</time>
      </trkpt>
      <trkpt lat="43.72138" lon="3.60281">
        <ele>221.255</ele>
        <time>2010-12-22T14:42:33Z</time>
      </trkpt>
      <trkpt lat="43.72148" lon="3.60308">
        <ele>220.001</ele>
        <time>2010-12-22T14:42:39Z</time>
      </trkpt>
      <trkpt lat="43.72148" lon="3.60329">
        <ele>219.283</ele>
        <time>2010-12-22T14:42:43Z</time>
      </trkpt>
      <trkpt lat="43.72139" lon="3.60368">
        <ele>217.972</ele>
        <time>2010-12-22T14:42:50Z</time>
      </trkpt>
      <trkpt lat="43.72137" lon="3.604">
        <ele>216</ele>
        <time>2010-12-22T14:42:56Z</time>
      </trkpt>
      <trkpt lat="43.72138" lon="3.60424">
        <ele>215.504</ele>
        <time>2010-12-22T14:43:00Z</time>
      </trkpt>
      <trkpt lat="43.7214" lon="3.60436">
        <ele>214.906</ele>
        <time>2010-12-22T14:43:02Z</time>
      </trkpt>
      <trkpt lat="43.72149" lon="3.60454">
        <ele>213.316</ele>
        <time>2010-12-22T14:43:06Z</time>
      </trkpt>
      <trkpt lat="43.72161" lon="3.60476">
        <ele>212.682</ele>
        <time>2010-12-22T14:43:12Z</time>
      </trkpt>
      <trkpt lat="43.72169" lon="3.60497">
        <ele>212.678</ele>
        <time>2010-12-22T14:43:16Z</time>
      </trkpt>
      <trkpt lat="43.72173" lon="3.60525">
        <ele>211.953</ele>
        <time>2010-12-22T14:43:21Z</time>
      </trkpt>
      <trkpt lat="43.7217" lon="3.60548">
        <ele>211.195</ele>
        <time>2010-12-22T14:43:26Z</time>
      </trkpt>
      <trkpt lat="43.72152" lon="3.60562">
        <ele>209.88</ele>
        <time>2010-12-22T14:43:32Z</time>
      </trkpt>
      <trkpt lat="43.7214" lon="3.60571">
        <ele>209.8</ele>
        <time>2010-12-22T14:43:35Z</time>
      </trkpt>
      <trkpt lat="43.7212" lon="3.60587">
        <ele>209.333</ele>
        <time>2010-12-22T14:43:40Z</time>
      </trkpt>
      <trkpt lat="43.72105" lon="3.60606">
        <ele>207.925</ele>
        <time>2010-12-22T14:43:44Z</time>
      </trkpt>
      <trkpt lat="43.72073" lon="3.60633">
        <ele>206.902</ele>
        <time>2010-12-22T14:43:51Z</time>
      </trkpt>
      <trkpt lat="43.72063" lon="3.60639">
        <ele>206.764</ele>
        <time>2010-12-22T14:43:53Z</time>
      </trkpt>
      <trkpt lat="43.72044" lon="3.60664">
        <ele>206.677</ele>
        <time>2010-12-22T14:43:58Z</time>
      </trkpt>
      <trkpt lat="43.72023" lon="3.60718">
        <ele>206.462</ele>
        <time>2010-12-22T14:44:07Z</time>
      </trkpt>
      <trkpt lat="43.72006" lon="3.60756">
        <ele>207.622</ele>
        <time>2010-12-22T14:44:15Z</time>
      </trkpt>
      <trkpt lat="43.71999" lon="3.60777">
        <ele>207.648</ele>
        <time>2010-12-22T14:44:19Z</time>
      </trkpt>
      <trkpt lat="43.71995" lon="3.60786">
        <ele>207.967</ele>
        <time>2010-12-22T14:44:21Z</time>
      </trkpt>
      <trkpt lat="43.71987" lon="3.60799">
        <ele>207.888</ele>
        <time>2010-12-22T14:44:24Z</time>
      </trkpt>
      <trkpt lat="43.7195" lon="3.60831">
        <ele>208.268</ele>
        <time>2010-12-22T14:44:34Z</time>
      </trkpt>
      <trkpt lat="43.71933" lon="3.60844">
        <ele>206.589</ele>
        <time>2010-12-22T14:44:39Z</time>
      </trkpt>
      <trkpt lat="43.71935" lon="3.60852">
        <ele>204.953</ele>
        <time>2010-12-22T14:44:43Z</time>
      </trkpt>
      <trkpt lat="43.71954" lon="3.60868">
        <ele>203.26</ele>
        <time>2010-12-22T14:44:49Z</time>
      </trkpt>
      <trkpt lat="43.71975" lon="3.60881">
        <ele>202.861</ele>
        <time>2010-12-22T14:44:56Z</time>
      </trkpt>
      <trkpt lat="43.71996" lon="3.6089">
        <ele>202.556</ele>
        <time>2010-12-22T14:45:02Z</time>
      </trkpt>
      <trkpt lat="43.72003" lon="3.60901">
        <ele>201.961</ele>
        <time>2010-12-22T14:45:05Z</time>
      </trkpt>
      <trkpt lat="43.72006" lon="3.60925">
        <ele>200.025</ele>
        <time>2010-12-22T14:45:09Z</time>
      </trkpt>
      <trkpt lat="43.72007" lon="3.60956">
        <ele>197.933</ele>
        <time>2010-12-22T14:45:14Z</time>
      </trkpt>
      <trkpt lat="43.72007" lon="3.60983">
        <ele>196.675</ele>
        <time>2010-12-22T14:45:18Z</time>
      </trkpt>
      <trkpt lat="43.71999" lon="3.61011">
        <ele>194.317</ele>
        <time>2010-12-22T14:45:23Z</time>
      </trkpt>
      <trkpt lat="43.71982" lon="3.61036">
        <ele>192.886</ele>
        <time>2010-12-22T14:45:29Z</time>
      </trkpt>
      <trkpt lat="43.71968" lon="3.61049">
        <ele>193.504</ele>
        <time>2010-12-22T14:45:35Z</time>
      </trkpt>
      <trkpt lat="43.71956" lon="3.6106">
        <ele>193.352</ele>
        <time>2010-12-22T14:45:40Z</time>
      </trkpt>
      <trkpt lat="43.71941" lon="3.61085">
        <ele>193.855</ele>
        <time>2010-12-22T14:45:48Z</time>
      </trkpt>
      <trkpt lat="43.71928" lon="3.61109">
        <ele>195.572</ele>
        <time>2010-12-22T14:45:56Z</time>
      </trkpt>
      <trkpt lat="43.71915" lon="3.61131">
        <ele>196.754</ele>
        <time>2010-12-22T14:46:04Z</time>
      </trkpt>
      <trkpt lat="43.71903" lon="3.61154">
        <ele>197.554</ele>
        <time>2010-12-22T14:46:12Z</time>
      </trkpt>
      <trkpt lat="43.71891" lon="3.6117">
        <ele>198.975</ele>
        <time>2010-12-22T14:46:19Z</time>
      </trkpt>
      <trkpt lat="43.71873" lon="3.61193">
        <ele>201.962</ele>
        <time>2010-12-22T14:46:30Z</time>
      </trkpt>
      <trkpt lat="43.71858" lon="3.61217">
        <ele>204.329</ele>
        <time>2010-12-22T14:46:40Z</time>
      </trkpt>
      <trkpt lat="43.71846" lon="3.61236">
        <ele>205.344</ele>
        <time>2010-12-22T14:46:48Z</time>
      </trkpt>
      <trkpt lat="43.71831" lon="3.61258">
        <ele>205.438</ele>
        <time>2010-12-22T14:46:56Z</time>
      </trkpt>
      <trkpt lat="43.71815" lon="3.61279">
        <ele>205.034</ele>
        <time>2010-12-22T14:47:03Z</time>
      </trkpt>
      <trkpt lat="43.71797" lon="3.613">
        <ele>203.529</ele>
        <time>2010-12-22T14:47:10Z</time>
      </trkpt>
      <trkpt lat="43.71794" lon="3.61305">
        <ele>203.071</ele>
        <time>2010-12-22T14:47:11Z</time>
      </trkpt>
      <trkpt lat="43.71786" lon="3.61314">
        <ele>202.237</ele>
        <time>2010-12-22T14:47:13Z</time>
      </trkpt>
      <trkpt lat="43.71756" lon="3.61338">
        <ele>200.469</ele>
        <time>2010-12-22T14:47:20Z</time>
      </trkpt>
      <trkpt lat="43.71741" lon="3.61364">
        <ele>198.314</ele>
        <time>2010-12-22T14:47:25Z</time>
      </trkpt>
      <trkpt lat="43.71738" lon="3.61378">
        <ele>197.088</ele>
        <time>2010-12-22T14:47:27Z</time>
      </trkpt>
      <trkpt lat="43.71727" lon="3.61425">
        <ele>192.38</ele>
        <time>2010-12-22T14:47:32Z</time>
      </trkpt>
      <trkpt lat="43.71715" lon="3.61455">
        <ele>190.714</ele>
        <time>2010-12-22T14:47:35Z</time>
      </trkpt>
      <trkpt lat="43.71707" lon="3.61489">
        <ele>187.791</ele>
        <time>2010-12-22T14:47:39Z</time>
      </trkpt>
      <trkpt lat="43.71706" lon="3.6154">
        <ele>184.028</ele>
        <time>2010-12-22T14:47:46Z</time>
      </trkpt>
      <trkpt lat="43.71705" lon="3.6156">
        <ele>182.524</ele>
        <time>2010-12-22T14:47:49Z</time>
      </trkpt>
      <trkpt lat="43.71703" lon="3.6157">
        <ele>180.498</ele>
        <time>2010-12-22T14:47:51Z</time>
      </trkpt>
      <trkpt lat="43.71709" lon="3.61575">
        <ele>176.919</ele>
        <time>2010-12-22T14:47:55Z</time>
      </trkpt>
      <trkpt lat="43.71732" lon="3.61569">
        <ele>175.633</ele>
        <time>2010-12-22T14:48:01Z</time>
      </trkpt>
      <trkpt lat="43.71746" lon="3.61566">
        <ele>174.954</ele>
        <time>2010-12-22T14:48:04Z</time>
      </trkpt>
      <trkpt lat="43.71759" lon="3.61561">
        <ele>174.814</ele>
        <time>2010-12-22T14:48:07Z</time>
      </trkpt>
      <trkpt lat="43.71767" lon="3.61555">
        <ele>174.844</ele>
        <time>2010-12-22T14:48:09Z</time>
      </trkpt>
      <trkpt lat="43.71796" lon="3.61521">
        <ele>175.428</ele>
        <time>2010-12-22T14:48:18Z</time>
      </trkpt>
      <trkpt lat="43.7182" lon="3.61495">
        <ele>174.978</ele>
        <time>2010-12-22T14:48:26Z</time>
      </trkpt>
      <trkpt lat="43.71846" lon="3.61467">
        <ele>174.951</ele>
        <time>2010-12-22T14:48:34Z</time>
      </trkpt>
      <trkpt lat="43.7187" lon="3.61446">
        <ele>174.745</ele>
        <time>2010-12-22T14:48:41Z</time>
      </trkpt>
      <trkpt lat="43.71898" lon="3.61442">
        <ele>174.719</ele>
        <time>2010-12-22T14:48:47Z</time>
      </trkpt>
      <trkpt lat="43.71903" lon="3.61441">
        <ele>174.705</ele>
        <time>2010-12-22T14:48:48Z</time>
      </trkpt>
      <trkpt lat="43.71929" lon="3.6143">
        <ele>174.957</ele>
        <time>2010-12-22T14:48:55Z</time>
      </trkpt>
      <trkpt lat="43.71955" lon="3.61413">
        <ele>177.308</ele>
        <time>2010-12-22T14:49:04Z</time>
      </trkpt>
      <trkpt lat="43.7198" lon="3.61398">
        <ele>178.413</ele>
        <time>2010-12-22T14:49:13Z</time>
      </trkpt>
      <trkpt lat="43.72003" lon="3.61382">
        <ele>179.738</ele>
        <time>2010-12-22T14:49:22Z</time>
      </trkpt>
      <trkpt lat="43.72029" lon="3.61356">
        <ele>181.524</ele>
        <time>2010-12-22T14:49:34Z</time>
      </trkpt>
      <trkpt lat="43.72035" lon="3.6134">
        <ele>181.94</ele>
        <time>2010-12-22T14:49:39Z</time>
      </trkpt>
      <trkpt lat="43.7203" lon="3.61319">
        <ele>183.39</ele>
        <time>2010-12-22T14:49:45Z</time>
      </trkpt>
      <trkpt lat="43.72029" lon="3.61309">
        <ele>184.165</ele>
        <time>2010-12-22T14:49:48Z</time>
      </trkpt>
      <trkpt lat="43.72037" lon="3.61305">
        <ele>186.414</ele>
        <time>2010-12-22T14:49:52Z</time>
      </trkpt>
      <trkpt lat="43.72039" lon="3.61306">
        <ele>187.114</ele>
        <time>2010-12-22T14:49:53Z</time>
      </trkpt>
      <trkpt lat="43.72053" lon="3.61322">
        <ele>190.111</ele>
        <time>2010-12-22T14:50:01Z</time>
      </trkpt>
      <trkpt lat="43.72068" lon="3.61338">
        <ele>190.992</ele>
        <time>2010-12-22T14:50:08Z</time>
      </trkpt>
      <trkpt lat="43.72085" lon="3.61352">
        <ele>192.126</ele>
        <time>2010-12-22T14:50:16Z</time>
      </trkpt>
      <trkpt lat="43.72105" lon="3.61368">
        <ele>192.753</ele>
        <time>2010-12-22T14:50:24Z</time>
      </trkpt>
      <trkpt lat="43.72117" lon="3.61378">
        <ele>194.929</ele>
        <time>2010-12-22T14:50:30Z</time>
      </trkpt>
      <trkpt lat="43.72128" lon="3.61387">
        <ele>193.758</ele>
        <time>2010-12-22T14:50:35Z</time>
      </trkpt>
      <trkpt lat="43.72144" lon="3.614">
        <ele>193.834</ele>
        <time>2010-12-22T14:50:42Z</time>
      </trkpt>
      <trkpt lat="43.72158" lon="3.61421">
        <ele>193.834</ele>
        <time>2010-12-22T14:50:49Z</time>
      </trkpt>
      <trkpt lat="43.72168" lon="3.61438">
        <ele>193.706</ele>
        <time>2010-12-22T14:50:56Z</time>
      </trkpt>
      <trkpt lat="43.72175" lon="3.61449">
        <ele>193.988</ele>
        <time>2010-12-22T14:51:02Z</time>
      </trkpt>
      <trkpt lat="43.72177" lon="3.61461">
        <ele>193.859</ele>
        <time>2010-12-22T14:51:05Z</time>
      </trkpt>
      <trkpt lat="43.72172" lon="3.61493">
        <ele>192.943</ele>
        <time>2010-12-22T14:51:11Z</time>
      </trkpt>
      <trkpt lat="43.72171" lon="3.61519">
        <ele>193.829</ele>
        <time>2010-12-22T14:51:18Z</time>
      </trkpt>
      <trkpt lat="43.72171" lon="3.61533">
        <ele>195.016</ele>
        <time>2010-12-22T14:51:23Z</time>
      </trkpt>
      <trkpt lat="43.72173" lon="3.61559">
        <ele>197.087</ele>
        <time>2010-12-22T14:51:31Z</time>
      </trkpt>
      <trkpt lat="43.72178" lon="3.6158">
        <ele>198.896</ele>
        <time>2010-12-22T14:51:38Z</time>
      </trkpt>
      <trkpt lat="43.72184" lon="3.61609">
        <ele>201.195</ele>
        <time>2010-12-22T14:51:47Z</time>
      </trkpt>
      <trkpt lat="43.72189" lon="3.61635">
        <ele>202.782</ele>
        <time>2010-12-22T14:51:55Z</time>
      </trkpt>
      <trkpt lat="43.72194" lon="3.61669">
        <ele>204.04</ele>
        <time>2010-12-22T14:52:05Z</time>
      </trkpt>
      <trkpt lat="43.72195" lon="3.61679">
        <ele>204.35</ele>
        <time>2010-12-22T14:52:08Z</time>
      </trkpt>
      <trkpt lat="43.72185" lon="3.61691">
        <ele>204.269</ele>
        <time>2010-12-22T14:52:13Z</time>
      </trkpt>
      <trkpt lat="43.72164" lon="3.61705">
        <ele>203.373</ele>
        <time>2010-12-22T14:52:20Z</time>
      </trkpt>
      <trkpt lat="43.72141" lon="3.61718">
        <ele>203.104</ele>
        <time>2010-12-22T14:52:28Z</time>
      </trkpt>
      <trkpt lat="43.7212" lon="3.61732">
        <ele>202.889</ele>
        <time>2010-12-22T14:52:36Z</time>
      </trkpt>
      <trkpt lat="43.72105" lon="3.61747">
        <ele>201.837</ele>
        <time>2010-12-22T14:52:42Z</time>
      </trkpt>
      <trkpt lat="43.72086" lon="3.61766">
        <ele>200.734</ele>
        <time>2010-12-22T14:52:49Z</time>
      </trkpt>
      <trkpt lat="43.72065" lon="3.6178">
        <ele>200.525</ele>
        <time>2010-12-22T14:52:56Z</time>
      </trkpt>
      <trkpt lat="43.72041" lon="3.61806">
        <ele>199.849</ele>
        <time>2010-12-22T14:53:05Z</time>
      </trkpt>
      <trkpt lat="43.72013" lon="3.61834">
        <ele>198.343</ele>
        <time>2010-12-22T14:53:15Z</time>
      </trkpt>
      <trkpt lat="43.71996" lon="3.61851">
        <ele>197.788</ele>
        <time>2010-12-22T14:53:21Z</time>
      </trkpt>
      <trkpt lat="43.71973" lon="3.61871">
        <ele>196.36</ele>
        <time>2010-12-22T14:53:28Z</time>
      </trkpt>
      <trkpt lat="43.71967" lon="3.61878">
        <ele>195.963</ele>
        <time>2010-12-22T14:53:30Z</time>
      </trkpt>
      <trkpt lat="43.71959" lon="3.61885">
        <ele>195.549</ele>
        <time>2010-12-22T14:53:32Z</time>
      </trkpt>
      <trkpt lat="43.71946" lon="3.61906">
        <ele>194.312</ele>
        <time>2010-12-22T14:53:37Z</time>
      </trkpt>
      <trkpt lat="43.71927" lon="3.61942">
        <ele>193.365</ele>
        <time>2010-12-22T14:53:46Z</time>
      </trkpt>
      <trkpt lat="43.71911" lon="3.6196">
        <ele>192.337</ele>
        <time>2010-12-22T14:53:53Z</time>
      </trkpt>
      <trkpt lat="43.71894" lon="3.61967">
        <ele>191.272</ele>
        <time>2010-12-22T14:53:59Z</time>
      </trkpt>
      <trkpt lat="43.71881" lon="3.61977">
        <ele>190.164</ele>
        <time>2010-12-22T14:54:04Z</time>
      </trkpt>
      <trkpt lat="43.71883" lon="3.61988">
        <ele>189.71</ele>
        <time>2010-12-22T14:54:08Z</time>
      </trkpt>
      <trkpt lat="43.71903" lon="3.61984">
        <ele>189.801</ele>
        <time>2010-12-22T14:54:15Z</time>
      </trkpt>
      <trkpt lat="43.71919" lon="3.61982">
        <ele>190.018</ele>
        <time>2010-12-22T14:54:21Z</time>
      </trkpt>
      <trkpt lat="43.71946" lon="3.61975">
        <ele>190.686</ele>
        <time>2010-12-22T14:54:30Z</time>
      </trkpt>
      <trkpt lat="43.71972" lon="3.61968">
        <ele>190.618</ele>
        <time>2010-12-22T14:54:38Z</time>
      </trkpt>
      <trkpt lat="43.72005" lon="3.61955">
        <ele>190.744</ele>
        <time>2010-12-22T14:54:48Z</time>
      </trkpt>
      <trkpt lat="43.72016" lon="3.6196">
        <ele>190.195</ele>
        <time>2010-12-22T14:54:52Z</time>
      </trkpt>
      <trkpt lat="43.72027" lon="3.61971">
        <ele>190.29</ele>
        <time>2010-12-22T14:54:57Z</time>
      </trkpt>
      <trkpt lat="43.72042" lon="3.6198">
        <ele>191.375</ele>
        <time>2010-12-22T14:55:03Z</time>
      </trkpt>
      <trkpt lat="43.72062" lon="3.6199">
        <ele>193.793</ele>
        <time>2010-12-22T14:55:11Z</time>
      </trkpt>
      <trkpt lat="43.72079" lon="3.62002">
        <ele>195.606</ele>
        <time>2010-12-22T14:55:19Z</time>
      </trkpt>
      <trkpt lat="43.72097" lon="3.62015">
        <ele>196.627</ele>
        <time>2010-12-22T14:55:27Z</time>
      </trkpt>
      <trkpt lat="43.72112" lon="3.62026">
        <ele>197.711</ele>
        <time>2010-12-22T14:55:34Z</time>
      </trkpt>
      <trkpt lat="43.72129" lon="3.62037">
        <ele>199.235</ele>
        <time>2010-12-22T14:55:42Z</time>
      </trkpt>
      <trkpt lat="43.72153" lon="3.6205">
        <ele>200.711</ele>
        <time>2010-12-22T14:55:52Z</time>
      </trkpt>
      <trkpt lat="43.72179" lon="3.62065">
        <ele>202.188</ele>
        <time>2010-12-22T14:56:03Z</time>
      </trkpt>
      <trkpt lat="43.72206" lon="3.62078">
        <ele>204.145</ele>
        <time>2010-12-22T14:56:14Z</time>
      </trkpt>
      <trkpt lat="43.72227" lon="3.62091">
        <ele>205.256</ele>
        <time>2010-12-22T14:56:23Z</time>
      </trkpt>
      <trkpt lat="43.72243" lon="3.62098">
        <ele>206.344</ele>
        <time>2010-12-22T14:56:30Z</time>
      </trkpt>
      <trkpt lat="43.72259" lon="3.62105">
        <ele>207.881</ele>
        <time>2010-12-22T14:56:37Z</time>
      </trkpt>
      <trkpt lat="43.72278" lon="3.62118">
        <ele>209.881</ele>
        <time>2010-12-22T14:56:46Z</time>
      </trkpt>
      <trkpt lat="43.72297" lon="3.62129">
        <ele>211.708</ele>
        <time>2010-12-22T14:56:55Z</time>
      </trkpt>
      <trkpt lat="43.72308" lon="3.62142">
        <ele>212.97</ele>
        <time>2010-12-22T14:57:01Z</time>
      </trkpt>
      <trkpt lat="43.72316" lon="3.62159">
        <ele>213.785</ele>
        <time>2010-12-22T14:57:08Z</time>
      </trkpt>
      <trkpt lat="43.72326" lon="3.62173">
        <ele>214.292</ele>
        <time>2010-12-22T14:57:14Z</time>
      </trkpt>
      <trkpt lat="43.72339" lon="3.62193">
        <ele>214.352</ele>
        <time>2010-12-22T14:57:21Z</time>
      </trkpt>
      <trkpt lat="43.72339" lon="3.62197">
        <ele>214.248</ele>
        <time>2010-12-22T14:57:22Z</time>
      </trkpt>
      <trkpt lat="43.72334" lon="3.62209">
        <ele>214.358</ele>
        <time>2010-12-22T14:57:27Z</time>
      </trkpt>
      <trkpt lat="43.72329" lon="3.62215">
        <ele>214.692</ele>
        <time>2010-12-22T14:57:36Z</time>
      </trkpt>
      <trkpt lat="43.72323" lon="3.62232">
        <ele>215.009</ele>
        <time>2010-12-22T14:57:41Z</time>
      </trkpt>
      <trkpt lat="43.72325" lon="3.62262">
        <ele>215.978</ele>
        <time>2010-12-22T14:57:49Z</time>
      </trkpt>
      <trkpt lat="43.72335" lon="3.62301">
        <ele>216.894</ele>
        <time>2010-12-22T14:58:00Z</time>
      </trkpt>
      <trkpt lat="43.72346" lon="3.62339">
        <ele>217.746</ele>
        <time>2010-12-22T14:58:11Z</time>
      </trkpt>
      <trkpt lat="43.72357" lon="3.62357">
        <ele>217.682</ele>
        <time>2010-12-22T14:58:17Z</time>
      </trkpt>
      <trkpt lat="43.72364" lon="3.62362">
        <ele>217.441</ele>
        <time>2010-12-22T14:58:19Z</time>
      </trkpt>
      <trkpt lat="43.72375" lon="3.62374">
        <ele>216.774</ele>
        <time>2010-12-22T14:58:22Z</time>
      </trkpt>
      <trkpt lat="43.72384" lon="3.62393">
        <ele>214.766</ele>
        <time>2010-12-22T14:58:26Z</time>
      </trkpt>
      <trkpt lat="43.72395" lon="3.6243">
        <ele>213.904</ele>
        <time>2010-12-22T14:58:33Z</time>
      </trkpt>
      <trkpt lat="43.72405" lon="3.62456">
        <ele>215.131</ele>
        <time>2010-12-22T14:58:40Z</time>
      </trkpt>
      <trkpt lat="43.72418" lon="3.62485">
        <ele>217.443</ele>
        <time>2010-12-22T14:58:49Z</time>
      </trkpt>
      <trkpt lat="43.72433" lon="3.6251">
        <ele>219.735</ele>
        <time>2010-12-22T14:58:58Z</time>
      </trkpt>
      <trkpt lat="43.72446" lon="3.62527">
        <ele>220.883</ele>
        <time>2010-12-22T14:59:05Z</time>
      </trkpt>
      <trkpt lat="43.72457" lon="3.62541">
        <ele>221.952</ele>
        <time>2010-12-22T14:59:11Z</time>
      </trkpt>
      <trkpt lat="43.7247" lon="3.62563">
        <ele>224.11</ele>
        <time>2010-12-22T14:59:20Z</time>
      </trkpt>
      <trkpt lat="43.72483" lon="3.62582">
        <ele>225.407</ele>
        <time>2010-12-22T14:59:28Z</time>
      </trkpt>
      <trkpt lat="43.72483" lon="3.62583">
        <ele>225.68</ele>
        <time>2010-12-22T14:59:32Z</time>
      </trkpt>
      <trkpt lat="43.72486" lon="3.62589">
        <ele>226.025</ele>
        <time>2010-12-22T14:59:36Z</time>
      </trkpt>
      <trkpt lat="43.725" lon="3.62608">
        <ele>227.016</ele>
        <time>2010-12-22T14:59:44Z</time>
      </trkpt>
      <trkpt lat="43.72511" lon="3.62621">
        <ele>229.061</ele>
        <time>2010-12-22T14:59:50Z</time>
      </trkpt>
      <trkpt lat="43.72525" lon="3.62637">
        <ele>231.056</ele>
        <time>2010-12-22T14:59:58Z</time>
      </trkpt>
      <trkpt lat="43.72539" lon="3.62656">
        <ele>232.611</ele>
        <time>2010-12-22T15:00:06Z</time>
      </trkpt>
      <trkpt lat="43.72542" lon="3.62681">
        <ele>234.646</ele>
        <time>2010-12-22T15:00:13Z</time>
      </trkpt>
      <trkpt lat="43.72549" lon="3.62713">
        <ele>236.844</ele>
        <time>2010-12-22T15:00:23Z</time>
      </trkpt>
      <trkpt lat="43.72547" lon="3.62732">
        <ele>238.623</ele>
        <time>2010-12-22T15:00:29Z</time>
      </trkpt>
      <trkpt lat="43.72547" lon="3.62754">
        <ele>240.713</ele>
        <time>2010-12-22T15:00:36Z</time>
      </trkpt>
      <trkpt lat="43.72557" lon="3.62775">
        <ele>242.915</ele>
        <time>2010-12-22T15:00:44Z</time>
      </trkpt>
      <trkpt lat="43.72569" lon="3.62797">
        <ele>244.559</ele>
        <time>2010-12-22T15:00:52Z</time>
      </trkpt>
      <trkpt lat="43.72578" lon="3.62816">
        <ele>245.339</ele>
        <time>2010-12-22T15:00:59Z</time>
      </trkpt>
      <trkpt lat="43.72585" lon="3.62843">
        <ele>247.422</ele>
        <time>2010-12-22T15:01:08Z</time>
      </trkpt>
      <trkpt lat="43.7259" lon="3.62873">
        <ele>249.173</ele>
        <time>2010-12-22T15:01:18Z</time>
      </trkpt>
      <trkpt lat="43.72598" lon="3.6289">
        <ele>249.802</ele>
        <time>2010-12-22T15:01:25Z</time>
      </trkpt>
      <trkpt lat="43.72606" lon="3.62899">
        <ele>251.394</ele>
        <time>2010-12-22T15:01:32Z</time>
      </trkpt>
      <trkpt lat="43.72611" lon="3.62903">
        <ele>251.964</ele>
        <time>2010-12-22T15:01:40Z</time>
      </trkpt>
      <trkpt lat="43.72626" lon="3.62908">
        <ele>252.432</ele>
        <time>2010-12-22T15:01:48Z</time>
      </trkpt>
      <trkpt lat="43.72637" lon="3.62912">
        <ele>252.98</ele>
        <time>2010-12-22T15:01:55Z</time>
      </trkpt>
      <trkpt lat="43.72647" lon="3.62917">
        <ele>255.317</ele>
        <time>2010-12-22T15:02:03Z</time>
      </trkpt>
      <trkpt lat="43.72649" lon="3.62918">
        <ele>255.886</ele>
        <time>2010-12-22T15:02:05Z</time>
      </trkpt>
      <trkpt lat="43.7265" lon="3.6292">
        <ele>256.617</ele>
        <time>2010-12-22T15:02:07Z</time>
      </trkpt>
      <trkpt lat="43.72651" lon="3.6292">
        <ele>257.309</ele>
        <time>2010-12-22T15:02:13Z</time>
      </trkpt>
      <trkpt lat="43.7265" lon="3.6292">
        <ele>257.097</ele>
        <time>2010-12-22T15:02:15Z</time>
      </trkpt>
      <trkpt lat="43.72638" lon="3.62913">
        <ele>255.962</ele>
        <time>2010-12-22T15:02:21Z</time>
      </trkpt>
      <trkpt lat="43.72625" lon="3.62909">
        <ele>253.302</ele>
        <time>2010-12-22T15:02:26Z</time>
      </trkpt>
      <trkpt lat="43.72621" lon="3.62908">
        <ele>252.9</ele>
        <time>2010-12-22T15:02:30Z</time>
      </trkpt>
      <trkpt lat="43.72616" lon="3.62905">
        <ele>253.418</ele>
        <time>2010-12-22T15:02:48Z</time>
      </trkpt>
      <trkpt lat="43.72614" lon="3.62906">
        <ele>253.122</ele>
        <time>2010-12-22T15:02:53Z</time>
      </trkpt>
      <trkpt lat="43.72615" lon="3.62906">
        <ele>253.18</ele>
        <time>2010-12-22T15:02:56Z</time>
      </trkpt>
      <trkpt lat="43.72624" lon="3.62908">
        <ele>253.435</ele>
        <time>2010-12-22T15:03:02Z</time>
      </trkpt>
      <trkpt lat="43.72627" lon="3.62909">
        <ele>253.602</ele>
        <time>2010-12-22T15:03:04Z</time>
      </trkpt>
      <trkpt lat="43.72639" lon="3.62913">
        <ele>254.395</ele>
        <time>2010-12-22T15:03:12Z</time>
      </trkpt>
      <trkpt lat="43.72646" lon="3.62917">
        <ele>255.97</ele>
        <time>2010-12-22T15:03:18Z</time>
      </trkpt>
      <trkpt lat="43.72651" lon="3.6292">
        <ele>257.99</ele>
        <time>2010-12-22T15:03:22Z</time>
      </trkpt>
      <trkpt lat="43.72656" lon="3.62924">
        <ele>260.563</ele>
        <time>2010-12-22T15:03:29Z</time>
      </trkpt>
      <trkpt lat="43.72658" lon="3.62925">
        <ele>261.076</ele>
        <time>2010-12-22T15:03:35Z</time>
      </trkpt>
      <trkpt lat="43.72664" lon="3.6293">
        <ele>263.073</ele>
        <time>2010-12-22T15:03:45Z</time>
      </trkpt>
      <trkpt lat="43.72664" lon="3.62931">
        <ele>263.424</ele>
        <time>2010-12-22T15:03:46Z</time>
      </trkpt>
      <trkpt lat="43.72672" lon="3.62939">
        <ele>265.78</ele>
        <time>2010-12-22T15:03:58Z</time>
      </trkpt>
      <trkpt lat="43.72677" lon="3.62945">
        <ele>268.156</ele>
        <time>2010-12-22T15:04:07Z</time>
      </trkpt>
      <trkpt lat="43.72682" lon="3.62952">
        <ele>269.881</ele>
        <time>2010-12-22T15:04:16Z</time>
      </trkpt>
      <trkpt lat="43.72687" lon="3.62956">
        <ele>271.462</ele>
        <time>2010-12-22T15:04:24Z</time>
      </trkpt>
      <trkpt lat="43.72694" lon="3.62961">
        <ele>273.565</ele>
        <time>2010-12-22T15:04:33Z</time>
      </trkpt>
      <trkpt lat="43.727" lon="3.62965">
        <ele>275.404</ele>
        <time>2010-12-22T15:04:42Z</time>
      </trkpt>
      <trkpt lat="43.72706" lon="3.6297">
        <ele>278.506</ele>
        <time>2010-12-22T15:04:52Z</time>
      </trkpt>
      <trkpt lat="43.72707" lon="3.62972">
        <ele>280.003</ele>
        <time>2010-12-22T15:05:00Z</time>
      </trkpt>
      <trkpt lat="43.72713" lon="3.62978">
        <ele>279.909</ele>
        <time>2010-12-22T15:05:06Z</time>
      </trkpt>
      <trkpt lat="43.72721" lon="3.6299">
        <ele>282.45</ele>
        <time>2010-12-22T15:05:15Z</time>
      </trkpt>
      <trkpt lat="43.72726" lon="3.63001">
        <ele>284.435</ele>
        <time>2010-12-22T15:05:22Z</time>
      </trkpt>
      <trkpt lat="43.72735" lon="3.63016">
        <ele>287.408</ele>
        <time>2010-12-22T15:05:32Z</time>
      </trkpt>
      <trkpt lat="43.72744" lon="3.63025">
        <ele>290.133</ele>
        <time>2010-12-22T15:05:40Z</time>
      </trkpt>
      <trkpt lat="43.72753" lon="3.63031">
        <ele>291.393</ele>
        <time>2010-12-22T15:05:48Z</time>
      </trkpt>
      <trkpt lat="43.7276" lon="3.63044">
        <ele>294.618</ele>
        <time>2010-12-22T15:05:57Z</time>
      </trkpt>
      <trkpt lat="43.72765" lon="3.63051">
        <ele>295.787</ele>
        <time>2010-12-22T15:06:03Z</time>
      </trkpt>
      <trkpt lat="43.72768" lon="3.63053">
        <ele>296.882</ele>
        <time>2010-12-22T15:06:06Z</time>
      </trkpt>
      <trkpt lat="43.72773" lon="3.63057">
        <ele>297.911</ele>
        <time>2010-12-22T15:06:10Z</time>
      </trkpt>
      <trkpt lat="43.72789" lon="3.63063">
        <ele>300.639</ele>
        <time>2010-12-22T15:06:21Z</time>
      </trkpt>
      <trkpt lat="43.72796" lon="3.63076">
        <ele>302.233</ele>
        <time>2010-12-22T15:06:29Z</time>
      </trkpt>
      <trkpt lat="43.72804" lon="3.63096">
        <ele>304.958</ele>
        <time>2010-12-22T15:06:39Z</time>
      </trkpt>
      <trkpt lat="43.72811" lon="3.63115">
        <ele>306.003</ele>
        <time>2010-12-22T15:06:47Z</time>
      </trkpt>
      <trkpt lat="43.72823" lon="3.63129">
        <ele>305.941</ele>
        <time>2010-12-22T15:06:54Z</time>
      </trkpt>
      <trkpt lat="43.7283" lon="3.63141">
        <ele>305.779</ele>
        <time>2010-12-22T15:06:59Z</time>
      </trkpt>
      <trkpt lat="43.72832" lon="3.63155">
        <ele>305.119</ele>
        <time>2010-12-22T15:07:04Z</time>
      </trkpt>
      <trkpt lat="43.72845" lon="3.6316">
        <ele>305.163</ele>
        <time>2010-12-22T15:07:10Z</time>
      </trkpt>
      <trkpt lat="43.72862" lon="3.63166">
        <ele>306.119</ele>
        <time>2010-12-22T15:07:17Z</time>
      </trkpt>
      <trkpt lat="43.7288" lon="3.63163">
        <ele>307.193</ele>
        <time>2010-12-22T15:07:24Z</time>
      </trkpt>
      <trkpt lat="43.729" lon="3.63155">
        <ele>307.386</ele>
        <time>2010-12-22T15:07:32Z</time>
      </trkpt>
      <trkpt lat="43.72911" lon="3.63161">
        <ele>308.232</ele>
        <time>2010-12-22T15:07:37Z</time>
      </trkpt>
      <trkpt lat="43.7293" lon="3.63163">
        <ele>309.134</ele>
        <time>2010-12-22T15:07:44Z</time>
      </trkpt>
      <trkpt lat="43.7295" lon="3.63169">
        <ele>309.573</ele>
        <time>2010-12-22T15:07:52Z</time>
      </trkpt>
      <trkpt lat="43.72953" lon="3.63172">
        <ele>309.605</ele>
        <time>2010-12-22T15:07:54Z</time>
      </trkpt>
      <trkpt lat="43.72958" lon="3.63187">
        <ele>309.982</ele>
        <time>2010-12-22T15:08:01Z</time>
      </trkpt>
      <trkpt lat="43.72964" lon="3.632">
        <ele>309.658</ele>
        <time>2010-12-22T15:08:07Z</time>
      </trkpt>
      <trkpt lat="43.7297" lon="3.6322">
        <ele>309.711</ele>
        <time>2010-12-22T15:08:15Z</time>
      </trkpt>
      <trkpt lat="43.72972" lon="3.63242">
        <ele>309.251</ele>
        <time>2010-12-22T15:08:23Z</time>
      </trkpt>
      <trkpt lat="43.72973" lon="3.63263">
        <ele>309.584</ele>
        <time>2010-12-22T15:08:30Z</time>
      </trkpt>
      <trkpt lat="43.72984" lon="3.63292">
        <ele>309.855</ele>
        <time>2010-12-22T15:08:40Z</time>
      </trkpt>
      <trkpt lat="43.72997" lon="3.63299">
        <ele>310.534</ele>
        <time>2010-12-22T15:08:46Z</time>
      </trkpt>
      <trkpt lat="43.73009" lon="3.6331">
        <ele>310.882</ele>
        <time>2010-12-22T15:08:52Z</time>
      </trkpt>
      <trkpt lat="43.73014" lon="3.6333">
        <ele>310.988</ele>
        <time>2010-12-22T15:08:58Z</time>
      </trkpt>
      <trkpt lat="43.7302" lon="3.63358">
        <ele>311.528</ele>
        <time>2010-12-22T15:09:06Z</time>
      </trkpt>
      <trkpt lat="43.73018" lon="3.63383">
        <ele>311.081</ele>
        <time>2010-12-22T15:09:13Z</time>
      </trkpt>
      <trkpt lat="43.7301" lon="3.63404">
        <ele>310.275</ele>
        <time>2010-12-22T15:09:19Z</time>
      </trkpt>
      <trkpt lat="43.72997" lon="3.63421">
        <ele>310.305</ele>
        <time>2010-12-22T15:09:25Z</time>
      </trkpt>
      <trkpt lat="43.72981" lon="3.63438">
        <ele>309.054</ele>
        <time>2010-12-22T15:09:31Z</time>
      </trkpt>
      <trkpt lat="43.72968" lon="3.63453">
        <ele>308.205</ele>
        <time>2010-12-22T15:09:35Z</time>
      </trkpt>
      <trkpt lat="43.72957" lon="3.63463">
        <ele>307.658</ele>
        <time>2010-12-22T15:09:38Z</time>
      </trkpt>
      <trkpt lat="43.72925" lon="3.63478">
        <ele>306.073</ele>
        <time>2010-12-22T15:09:45Z</time>
      </trkpt>
      <trkpt lat="43.72907" lon="3.63486">
        <ele>305.362</ele>
        <time>2010-12-22T15:09:50Z</time>
      </trkpt>
      <trkpt lat="43.72889" lon="3.63492">
        <ele>304.009</ele>
        <time>2010-12-22T15:09:54Z</time>
      </trkpt>
      <trkpt lat="43.72886" lon="3.63492">
        <ele>302.511</ele>
        <time>2010-12-22T15:09:57Z</time>
      </trkpt>
      <trkpt lat="43.72885" lon="3.63493">
        <ele>302.379</ele>
        <time>2010-12-22T15:10:01Z</time>
      </trkpt>
      <trkpt lat="43.72878" lon="3.63486">
        <ele>302.502</ele>
        <time>2010-12-22T15:10:05Z</time>
      </trkpt>
      <trkpt lat="43.72863" lon="3.6345">
        <ele>301.948</ele>
        <time>2010-12-22T15:10:11Z</time>
      </trkpt>
      <trkpt lat="43.72839" lon="3.63395">
        <ele>300.551</ele>
        <time>2010-12-22T15:10:18Z</time>
      </trkpt>
      <trkpt lat="43.72818" lon="3.63339">
        <ele>298.688</ele>
        <time>2010-12-22T15:10:24Z</time>
      </trkpt>
      <trkpt lat="43.72782" lon="3.63256">
        <ele>295.151</ele>
        <time>2010-12-22T15:10:32Z</time>
      </trkpt>
      <trkpt lat="43.72748" lon="3.63203">
        <ele>292.911</ele>
        <time>2010-12-22T15:10:37Z</time>
      </trkpt>
      <trkpt lat="43.72697" lon="3.63144">
        <ele>287.622</ele>
        <time>2010-12-22T15:10:43Z</time>
      </trkpt>
      <trkpt lat="43.72626" lon="3.63069">
        <ele>277.859</ele>
        <time>2010-12-22T15:10:51Z</time>
      </trkpt>
      <trkpt lat="43.72589" lon="3.6301">
        <ele>273.825</ele>
        <time>2010-12-22T15:10:56Z</time>
      </trkpt>
      <trkpt lat="43.72559" lon="3.62944">
        <ele>270.944</ele>
        <time>2010-12-22T15:11:01Z</time>
      </trkpt>
      <trkpt lat="43.72529" lon="3.62882">
        <ele>267.4</ele>
        <time>2010-12-22T15:11:06Z</time>
      </trkpt>
      <trkpt lat="43.72505" lon="3.62853">
        <ele>265.248</ele>
        <time>2010-12-22T15:11:09Z</time>
      </trkpt>
      <trkpt lat="43.72467" lon="3.62828">
        <ele>263.966</ele>
        <time>2010-12-22T15:11:13Z</time>
      </trkpt>
      <trkpt lat="43.72436" lon="3.62822">
        <ele>262.274</ele>
        <time>2010-12-22T15:11:16Z</time>
      </trkpt>
      <trkpt lat="43.72404" lon="3.62819">
        <ele>259.667</ele>
        <time>2010-12-22T15:11:19Z</time>
      </trkpt>
      <trkpt lat="43.72352" lon="3.62796">
        <ele>256.286</ele>
        <time>2010-12-22T15:11:24Z</time>
      </trkpt>
      <trkpt lat="43.72342" lon="3.62788">
        <ele>255.354</ele>
        <time>2010-12-22T15:11:25Z</time>
      </trkpt>
      <trkpt lat="43.72323" lon="3.62772">
        <ele>253.833</ele>
        <time>2010-12-22T15:11:27Z</time>
      </trkpt>
      <trkpt lat="43.72251" lon="3.62703">
        <ele>249.121</ele>
        <time>2010-12-22T15:11:35Z</time>
      </trkpt>
      <trkpt lat="43.72183" lon="3.62637">
        <ele>244.399</ele>
        <time>2010-12-22T15:11:43Z</time>
      </trkpt>
      <trkpt lat="43.72156" lon="3.62595">
        <ele>240.884</ele>
        <time>2010-12-22T15:11:47Z</time>
      </trkpt>
      <trkpt lat="43.72139" lon="3.62558">
        <ele>239.477</ele>
        <time>2010-12-22T15:11:50Z</time>
      </trkpt>
      <trkpt lat="43.72127" lon="3.62534">
        <ele>238.104</ele>
        <time>2010-12-22T15:11:52Z</time>
      </trkpt>
      <trkpt lat="43.72097" lon="3.6249">
        <ele>236.169</ele>
        <time>2010-12-22T15:11:56Z</time>
      </trkpt>
      <trkpt lat="43.72045" lon="3.62437">
        <ele>234.436</ele>
        <time>2010-12-22T15:12:02Z</time>
      </trkpt>
      <trkpt lat="43.71998" lon="3.6241">
        <ele>229.272</ele>
        <time>2010-12-22T15:12:07Z</time>
      </trkpt>
      <trkpt lat="43.7197" lon="3.62397">
        <ele>227.533</ele>
        <time>2010-12-22T15:12:10Z</time>
      </trkpt>
      <trkpt lat="43.71895" lon="3.62363">
        <ele>224.71</ele>
        <time>2010-12-22T15:12:18Z</time>
      </trkpt>
      <trkpt lat="43.71844" lon="3.62331">
        <ele>222.653</ele>
        <time>2010-12-22T15:12:24Z</time>
      </trkpt>
      <trkpt lat="43.7178" lon="3.6228">
        <ele>217.562</ele>
        <time>2010-12-22T15:12:32Z</time>
      </trkpt>
      <trkpt lat="43.71734" lon="3.62264">
        <ele>214.716</ele>
        <time>2010-12-22T15:12:37Z</time>
      </trkpt>
      <trkpt lat="43.71661" lon="3.62258">
        <ele>211.613</ele>
        <time>2010-12-22T15:12:45Z</time>
      </trkpt>
      <trkpt lat="43.71583" lon="3.62252">
        <ele>208.353</ele>
        <time>2010-12-22T15:12:54Z</time>
      </trkpt>
      <trkpt lat="43.71543" lon="3.62257">
        <ele>205.216</ele>
        <time>2010-12-22T15:12:59Z</time>
      </trkpt>
      <trkpt lat="43.71536" lon="3.6226">
        <ele>205.077</ele>
        <time>2010-12-22T15:13:00Z</time>
      </trkpt>
      <trkpt lat="43.71504" lon="3.62282">
        <ele>200.53</ele>
        <time>2010-12-22T15:13:05Z</time>
      </trkpt>
      <trkpt lat="43.71471" lon="3.62316">
        <ele>199.507</ele>
        <time>2010-12-22T15:13:11Z</time>
      </trkpt>
      <trkpt lat="43.71444" lon="3.62356">
        <ele>198.219</ele>
        <time>2010-12-22T15:13:17Z</time>
      </trkpt>
      <trkpt lat="43.71425" lon="3.62379">
        <ele>197.095</ele>
        <time>2010-12-22T15:13:21Z</time>
      </trkpt>
      <trkpt lat="43.71399" lon="3.62392">
        <ele>194.374</ele>
        <time>2010-12-22T15:13:25Z</time>
      </trkpt>
      <trkpt lat="43.71379" lon="3.62381">
        <ele>192.172</ele>
        <time>2010-12-22T15:13:28Z</time>
      </trkpt>
      <trkpt lat="43.71369" lon="3.62352">
        <ele>191.157</ele>
        <time>2010-12-22T15:13:31Z</time>
      </trkpt>
      <trkpt lat="43.7137" lon="3.62317">
        <ele>190.502</ele>
        <time>2010-12-22T15:13:34Z</time>
      </trkpt>
      <trkpt lat="43.71389" lon="3.62207">
        <ele>186.947</ele>
        <time>2010-12-22T15:13:43Z</time>
      </trkpt>
      <trkpt lat="43.71397" lon="3.62155">
        <ele>183.732</ele>
        <time>2010-12-22T15:13:47Z</time>
      </trkpt>
      <trkpt lat="43.71394" lon="3.62114">
        <ele>181.983</ele>
        <time>2010-12-22T15:13:50Z</time>
      </trkpt>
      <trkpt lat="43.71404" lon="3.62056">
        <ele>179.259</ele>
        <time>2010-12-22T15:13:54Z</time>
      </trkpt>
      <trkpt lat="43.71414" lon="3.6203">
        <ele>178.579</ele>
        <time>2010-12-22T15:13:56Z</time>
      </trkpt>
      <trkpt lat="43.71429" lon="3.61994">
        <ele>176.101</ele>
        <time>2010-12-22T15:13:59Z</time>
      </trkpt>
      <trkpt lat="43.71445" lon="3.61954">
        <ele>174.461</ele>
        <time>2010-12-22T15:14:03Z</time>
      </trkpt>
      <trkpt lat="43.7145" lon="3.61942">
        <ele>173.76</ele>
        <time>2010-12-22T15:14:05Z</time>
      </trkpt>
      <trkpt lat="43.7144" lon="3.61934">
        <ele>172.482</ele>
        <time>2010-12-22T15:14:09Z</time>
      </trkpt>
      <trkpt lat="43.71437" lon="3.61934">
        <ele>172.503</ele>
        <time>2010-12-22T15:14:10Z</time>
      </trkpt>
      <trkpt lat="43.71416" lon="3.61934">
        <ele>173.6</ele>
        <time>2010-12-22T15:14:16Z</time>
      </trkpt>
      <trkpt lat="43.71398" lon="3.61936">
        <ele>175.16</ele>
        <time>2010-12-22T15:14:22Z</time>
      </trkpt>
      <trkpt lat="43.71379" lon="3.61935">
        <ele>175.889</ele>
        <time>2010-12-22T15:14:28Z</time>
      </trkpt>
      <trkpt lat="43.71367" lon="3.61925">
        <ele>176.49</ele>
        <time>2010-12-22T15:14:33Z</time>
      </trkpt>
      <trkpt lat="43.71357" lon="3.61894">
        <ele>179.265</ele>
        <time>2010-12-22T15:14:42Z</time>
      </trkpt>
      <trkpt lat="43.7135" lon="3.61877">
        <ele>181.242</ele>
        <time>2010-12-22T15:14:49Z</time>
      </trkpt>
      <trkpt lat="43.71345" lon="3.61856">
        <ele>183.026</ele>
        <time>2010-12-22T15:14:55Z</time>
      </trkpt>
      <trkpt lat="43.71339" lon="3.61831">
        <ele>183.508</ele>
        <time>2010-12-22T15:15:02Z</time>
      </trkpt>
      <trkpt lat="43.71339" lon="3.61826">
        <ele>183.46</ele>
        <time>2010-12-22T15:15:03Z</time>
      </trkpt>
      <trkpt lat="43.71344" lon="3.61791">
        <ele>181.68</ele>
        <time>2010-12-22T15:15:08Z</time>
      </trkpt>
      <trkpt lat="43.71351" lon="3.61779">
        <ele>180.878</ele>
        <time>2010-12-22T15:15:10Z</time>
      </trkpt>
      <trkpt lat="43.71362" lon="3.61762">
        <ele>179.354</ele>
        <time>2010-12-22T15:15:13Z</time>
      </trkpt>
      <trkpt lat="43.71372" lon="3.6175">
        <ele>178.127</ele>
        <time>2010-12-22T15:15:16Z</time>
      </trkpt>
      <trkpt lat="43.71383" lon="3.61749">
        <ele>177.461</ele>
        <time>2010-12-22T15:15:18Z</time>
      </trkpt>
      <trkpt lat="43.71395" lon="3.61748">
        <ele>177.355</ele>
        <time>2010-12-22T15:15:21Z</time>
      </trkpt>
      <trkpt lat="43.71404" lon="3.61729">
        <ele>176.804</ele>
        <time>2010-12-22T15:15:25Z</time>
      </trkpt>
      <trkpt lat="43.71417" lon="3.61718">
        <ele>177.034</ele>
        <time>2010-12-22T15:15:29Z</time>
      </trkpt>
      <trkpt lat="43.71425" lon="3.61698">
        <ele>178.063</ele>
        <time>2010-12-22T15:15:34Z</time>
      </trkpt>
      <trkpt lat="43.71415" lon="3.61678">
        <ele>178.775</ele>
        <time>2010-12-22T15:15:39Z</time>
      </trkpt>
      <trkpt lat="43.71394" lon="3.61659">
        <ele>179.255</ele>
        <time>2010-12-22T15:15:46Z</time>
      </trkpt>
      <trkpt lat="43.71376" lon="3.61639">
        <ele>180.296</ele>
        <time>2010-12-22T15:15:52Z</time>
      </trkpt>
      <trkpt lat="43.71359" lon="3.61626">
        <ele>181.73</ele>
        <time>2010-12-22T15:15:58Z</time>
      </trkpt>
      <trkpt lat="43.71339" lon="3.61611">
        <ele>183.347</ele>
        <time>2010-12-22T15:16:05Z</time>
      </trkpt>
      <trkpt lat="43.71318" lon="3.6159">
        <ele>186.311</ele>
        <time>2010-12-22T15:16:14Z</time>
      </trkpt>
      <trkpt lat="43.71296" lon="3.61568">
        <ele>187.631</ele>
        <time>2010-12-22T15:16:23Z</time>
      </trkpt>
      <trkpt lat="43.71282" lon="3.61551">
        <ele>188.09</ele>
        <time>2010-12-22T15:16:29Z</time>
      </trkpt>
      <trkpt lat="43.7127" lon="3.61533">
        <ele>188.29</ele>
        <time>2010-12-22T15:16:35Z</time>
      </trkpt>
      <trkpt lat="43.71257" lon="3.61506">
        <ele>187.935</ele>
        <time>2010-12-22T15:16:41Z</time>
      </trkpt>
      <trkpt lat="43.71253" lon="3.61473">
        <ele>186.188</ele>
        <time>2010-12-22T15:16:45Z</time>
      </trkpt>
      <trkpt lat="43.71255" lon="3.61462">
        <ele>185.662</ele>
        <time>2010-12-22T15:16:46Z</time>
      </trkpt>
      <trkpt lat="43.71271" lon="3.61404">
        <ele>181.142</ele>
        <time>2010-12-22T15:16:51Z</time>
      </trkpt>
      <trkpt lat="43.71292" lon="3.61361">
        <ele>178.225</ele>
        <time>2010-12-22T15:16:55Z</time>
      </trkpt>
      <trkpt lat="43.71335" lon="3.61288">
        <ele>174.928</ele>
        <time>2010-12-22T15:17:02Z</time>
      </trkpt>
      <trkpt lat="43.71351" lon="3.61241">
        <ele>172.985</ele>
        <time>2010-12-22T15:17:06Z</time>
      </trkpt>
      <trkpt lat="43.7135" lon="3.61201">
        <ele>171.645</ele>
        <time>2010-12-22T15:17:09Z</time>
      </trkpt>
      <trkpt lat="43.71343" lon="3.61177">
        <ele>170.311</ele>
        <time>2010-12-22T15:17:11Z</time>
      </trkpt>
      <trkpt lat="43.71325" lon="3.6113">
        <ele>168.16</ele>
        <time>2010-12-22T15:17:15Z</time>
      </trkpt>
      <trkpt lat="43.71283" lon="3.61027">
        <ele>165.408</ele>
        <time>2010-12-22T15:17:24Z</time>
      </trkpt>
      <trkpt lat="43.71248" lon="3.60948">
        <ele>161.87</ele>
        <time>2010-12-22T15:17:31Z</time>
      </trkpt>
      <trkpt lat="43.71216" lon="3.60899">
        <ele>157.632</ele>
        <time>2010-12-22T15:17:36Z</time>
      </trkpt>
      <trkpt lat="43.71164" lon="3.60835">
        <ele>154.415</ele>
        <time>2010-12-22T15:17:43Z</time>
      </trkpt>
      <trkpt lat="43.71137" lon="3.60779">
        <ele>153.443</ele>
        <time>2010-12-22T15:17:48Z</time>
      </trkpt>
      <trkpt lat="43.71116" lon="3.60731">
        <ele>152.678</ele>
        <time>2010-12-22T15:17:53Z</time>
      </trkpt>
      <trkpt lat="43.71096" lon="3.60687">
        <ele>153.952</ele>
        <time>2010-12-22T15:17:59Z</time>
      </trkpt>
      <trkpt lat="43.7107" lon="3.60635">
        <ele>156.407</ele>
        <time>2010-12-22T15:18:08Z</time>
      </trkpt>
      <trkpt lat="43.71043" lon="3.60586">
        <ele>158.163</ele>
        <time>2010-12-22T15:18:18Z</time>
      </trkpt>
      <trkpt lat="43.71013" lon="3.60535">
        <ele>160.087</ele>
        <time>2010-12-22T15:18:29Z</time>
      </trkpt>
      <trkpt lat="43.70988" lon="3.60505">
        <ele>161.656</ele>
        <time>2010-12-22T15:18:37Z</time>
      </trkpt>
      <trkpt lat="43.70954" lon="3.60478">
        <ele>163.186</ele>
        <time>2010-12-22T15:18:46Z</time>
      </trkpt>
      <trkpt lat="43.70917" lon="3.60442">
        <ele>162.85</ele>
        <time>2010-12-22T15:18:56Z</time>
      </trkpt>
      <trkpt lat="43.70866" lon="3.60385">
        <ele>163.191</ele>
        <time>2010-12-22T15:19:10Z</time>
      </trkpt>
      <trkpt lat="43.70823" lon="3.60337">
        <ele>163.688</ele>
        <time>2010-12-22T15:19:21Z</time>
      </trkpt>
      <trkpt lat="43.70805" lon="3.60315">
        <ele>164.164</ele>
        <time>2010-12-22T15:19:26Z</time>
      </trkpt>
      <trkpt lat="43.70792" lon="3.60279">
        <ele>164.027</ele>
        <time>2010-12-22T15:19:32Z</time>
      </trkpt>
      <trkpt lat="43.70773" lon="3.602">
        <ele>166.063</ele>
        <time>2010-12-22T15:19:45Z</time>
      </trkpt>
      <trkpt lat="43.70764" lon="3.60144">
        <ele>168.37</ele>
        <time>2010-12-22T15:19:55Z</time>
      </trkpt>
      <trkpt lat="43.70764" lon="3.60084">
        <ele>169.825</ele>
        <time>2010-12-22T15:20:05Z</time>
      </trkpt>
      <trkpt lat="43.70771" lon="3.60043">
        <ele>168.828</ele>
        <time>2010-12-22T15:20:10Z</time>
      </trkpt>
      <trkpt lat="43.70774" lon="3.60024">
        <ele>168.043</ele>
        <time>2010-12-22T15:20:12Z</time>
      </trkpt>
      <trkpt lat="43.70776" lon="3.59977">
        <ele>165.404</ele>
        <time>2010-12-22T15:20:16Z</time>
      </trkpt>
      <trkpt lat="43.70774" lon="3.59937">
        <ele>163.973</ele>
        <time>2010-12-22T15:20:19Z</time>
      </trkpt>
      <trkpt lat="43.70779" lon="3.59902">
        <ele>162.313</ele>
        <time>2010-12-22T15:20:22Z</time>
      </trkpt>
      <trkpt lat="43.70787" lon="3.59846">
        <ele>163.426</ele>
        <time>2010-12-22T15:20:28Z</time>
      </trkpt>
      <trkpt lat="43.70787" lon="3.59778">
        <ele>163.357</ele>
        <time>2010-12-22T15:20:36Z</time>
      </trkpt>
      <trkpt lat="43.70791" lon="3.59687">
        <ele>162.48</ele>
        <time>2010-12-22T15:20:46Z</time>
      </trkpt>
      <trkpt lat="43.70792" lon="3.59614">
        <ele>160.432</ele>
        <time>2010-12-22T15:20:53Z</time>
      </trkpt>
      <trkpt lat="43.70796" lon="3.59532">
        <ele>159.362</ele>
        <time>2010-12-22T15:21:01Z</time>
      </trkpt>
      <trkpt lat="43.70797" lon="3.59498">
        <ele>158.15</ele>
        <time>2010-12-22T15:21:04Z</time>
      </trkpt>
      <trkpt lat="43.70789" lon="3.59464">
        <ele>156.849</ele>
        <time>2010-12-22T15:21:07Z</time>
      </trkpt>
      <trkpt lat="43.70772" lon="3.59452">
        <ele>154.718</ele>
        <time>2010-12-22T15:21:09Z</time>
      </trkpt>
      <trkpt lat="43.70763" lon="3.59449">
        <ele>154.716</ele>
        <time>2010-12-22T15:21:10Z</time>
      </trkpt>
      <trkpt lat="43.70733" lon="3.59441">
        <ele>152.989</ele>
        <time>2010-12-22T15:21:13Z</time>
      </trkpt>
      <trkpt lat="43.70708" lon="3.59422">
        <ele>150.981</ele>
        <time>2010-12-22T15:21:16Z</time>
      </trkpt>
      <trkpt lat="43.70702" lon="3.59395">
        <ele>149.217</ele>
        <time>2010-12-22T15:21:18Z</time>
      </trkpt>
      <trkpt lat="43.70694" lon="3.59301">
        <ele>141.946</ele>
        <time>2010-12-22T15:21:24Z</time>
      </trkpt>
      <trkpt lat="43.70683" lon="3.59192">
        <ele>133.225</ele>
        <time>2010-12-22T15:21:30Z</time>
      </trkpt>
      <trkpt lat="43.70673" lon="3.59097">
        <ele>126.702</ele>
        <time>2010-12-22T15:21:35Z</time>
      </trkpt>
      <trkpt lat="43.70683" lon="3.59021">
        <ele>118.83</ele>
        <time>2010-12-22T15:21:39Z</time>
      </trkpt>
      <trkpt lat="43.70692" lon="3.58968">
        <ele>115.375</ele>
        <time>2010-12-22T15:21:42Z</time>
      </trkpt>
      <trkpt lat="43.70695" lon="3.58858">
        <ele>113.147</ele>
        <time>2010-12-22T15:21:48Z</time>
      </trkpt>
      <trkpt lat="43.70692" lon="3.58745">
        <ele>102.155</ele>
        <time>2010-12-22T15:21:54Z</time>
      </trkpt>
      <trkpt lat="43.7069" lon="3.58728">
        <ele>100.992</ele>
        <time>2010-12-22T15:21:55Z</time>
      </trkpt>
      <trkpt lat="43.70689" lon="3.58694">
        <ele>99.344</ele>
        <time>2010-12-22T15:21:57Z</time>
      </trkpt>
      <trkpt lat="43.70688" lon="3.58662">
        <ele>98.518</ele>
        <time>2010-12-22T15:21:59Z</time>
      </trkpt>
      <trkpt lat="43.70681" lon="3.58633">
        <ele>98.395</ele>
        <time>2010-12-22T15:22:01Z</time>
      </trkpt>
      <trkpt lat="43.7065" lon="3.58536">
        <ele>97.194</ele>
        <time>2010-12-22T15:22:09Z</time>
      </trkpt>
      <trkpt lat="43.70616" lon="3.58461">
        <ele>96.229</ele>
        <time>2010-12-22T15:22:16Z</time>
      </trkpt>
      <trkpt lat="43.70577" lon="3.58367">
        <ele>94.363</ele>
        <time>2010-12-22T15:22:25Z</time>
      </trkpt>
      <trkpt lat="43.7055" lon="3.58311">
        <ele>93.931</ele>
        <time>2010-12-22T15:22:31Z</time>
      </trkpt>
      <trkpt lat="43.70504" lon="3.58224">
        <ele>93.294</ele>
        <time>2010-12-22T15:22:41Z</time>
      </trkpt>
      <trkpt lat="43.705" lon="3.58215">
        <ele>93.193</ele>
        <time>2010-12-22T15:22:42Z</time>
      </trkpt>
      <trkpt lat="43.70487" lon="3.58153">
        <ele>92.172</ele>
        <time>2010-12-22T15:22:48Z</time>
      </trkpt>
      <trkpt lat="43.70482" lon="3.58089">
        <ele>91.315</ele>
        <time>2010-12-22T15:22:54Z</time>
      </trkpt>
      <trkpt lat="43.70487" lon="3.58015">
        <ele>90.73</ele>
        <time>2010-12-22T15:23:01Z</time>
      </trkpt>
      <trkpt lat="43.7049" lon="3.57939">
        <ele>90.503</ele>
        <time>2010-12-22T15:23:08Z</time>
      </trkpt>
      <trkpt lat="43.70496" lon="3.57883">
        <ele>88.148</ele>
        <time>2010-12-22T15:23:13Z</time>
      </trkpt>
      <trkpt lat="43.70504" lon="3.57814">
        <ele>87.192</ele>
        <time>2010-12-22T15:23:19Z</time>
      </trkpt>
      <trkpt lat="43.70503" lon="3.57746">
        <ele>86.225</ele>
        <time>2010-12-22T15:23:25Z</time>
      </trkpt>
      <trkpt lat="43.70504" lon="3.57664">
        <ele>84.076</ele>
        <time>2010-12-22T15:23:33Z</time>
      </trkpt>
      <trkpt lat="43.70509" lon="3.57581">
        <ele>83.008</ele>
        <time>2010-12-22T15:23:41Z</time>
      </trkpt>
      <trkpt lat="43.70513" lon="3.57537">
        <ele>82.253</ele>
        <time>2010-12-22T15:23:45Z</time>
      </trkpt>
      <trkpt lat="43.70508" lon="3.57448">
        <ele>81.49</ele>
        <time>2010-12-22T15:23:53Z</time>
      </trkpt>
      <trkpt lat="43.70502" lon="3.57352">
        <ele>82.161</ele>
        <time>2010-12-22T15:24:02Z</time>
      </trkpt>
      <trkpt lat="43.70496" lon="3.5727">
        <ele>82.218</ele>
        <time>2010-12-22T15:24:10Z</time>
      </trkpt>
      <trkpt lat="43.70491" lon="3.57164">
        <ele>81.304</ele>
        <time>2010-12-22T15:24:20Z</time>
      </trkpt>
      <trkpt lat="43.70486" lon="3.57096">
        <ele>82.362</ele>
        <time>2010-12-22T15:24:27Z</time>
      </trkpt>
      <trkpt lat="43.7049" lon="3.57044">
        <ele>83.216</ele>
        <time>2010-12-22T15:24:33Z</time>
      </trkpt>
      <trkpt lat="43.70497" lon="3.56958">
        <ele>84.374</ele>
        <time>2010-12-22T15:24:43Z</time>
      </trkpt>
      <trkpt lat="43.70504" lon="3.56867">
        <ele>83.774</ele>
        <time>2010-12-22T15:24:53Z</time>
      </trkpt>
      <trkpt lat="43.70502" lon="3.56798">
        <ele>83.231</ele>
        <time>2010-12-22T15:25:00Z</time>
      </trkpt>
      <trkpt lat="43.705" lon="3.567">
        <ele>82.123</ele>
        <time>2010-12-22T15:25:10Z</time>
      </trkpt>
      <trkpt lat="43.70502" lon="3.56623">
        <ele>82.452</ele>
        <time>2010-12-22T15:25:18Z</time>
      </trkpt>
      <trkpt lat="43.70506" lon="3.56566">
        <ele>82.883</ele>
        <time>2010-12-22T15:25:24Z</time>
      </trkpt>
      <trkpt lat="43.70519" lon="3.56505">
        <ele>83.501</ele>
        <time>2010-12-22T15:25:31Z</time>
      </trkpt>
      <trkpt lat="43.70535" lon="3.56427">
        <ele>83.054</ele>
        <time>2010-12-22T15:25:40Z</time>
      </trkpt>
      <trkpt lat="43.7055" lon="3.56342">
        <ele>82.544</ele>
        <time>2010-12-22T15:25:49Z</time>
      </trkpt>
      <trkpt lat="43.70556" lon="3.56314">
        <ele>82.163</ele>
        <time>2010-12-22T15:25:52Z</time>
      </trkpt>
      <trkpt lat="43.70556" lon="3.56264">
        <ele>80.705</ele>
        <time>2010-12-22T15:25:57Z</time>
      </trkpt>
      <trkpt lat="43.70554" lon="3.56255">
        <ele>80.45</ele>
        <time>2010-12-22T15:25:58Z</time>
      </trkpt>
      <trkpt lat="43.70543" lon="3.56211">
        <ele>79.92</ele>
        <time>2010-12-22T15:26:03Z</time>
      </trkpt>
      <trkpt lat="43.70541" lon="3.56176">
        <ele>79.435</ele>
        <time>2010-12-22T15:26:07Z</time>
      </trkpt>
      <trkpt lat="43.70543" lon="3.56168">
        <ele>79.468</ele>
        <time>2010-12-22T15:26:08Z</time>
      </trkpt>
      <trkpt lat="43.70569" lon="3.56104">
        <ele>79.66</ele>
        <time>2010-12-22T15:26:17Z</time>
      </trkpt>
      <trkpt lat="43.70576" lon="3.56092">
        <ele>79.12</ele>
        <time>2010-12-22T15:26:20Z</time>
      </trkpt>
      <trkpt lat="43.70577" lon="3.56086">
        <ele>78.224</ele>
        <time>2010-12-22T15:26:24Z</time>
      </trkpt>
      <trkpt lat="43.70571" lon="3.56082">
        <ele>78.125</ele>
        <time>2010-12-22T15:26:28Z</time>
      </trkpt>
      <trkpt lat="43.70556" lon="3.56092">
        <ele>78.584</ele>
        <time>2010-12-22T15:26:32Z</time>
      </trkpt>
      <trkpt lat="43.70552" lon="3.56095">
        <ele>78.631</ele>
        <time>2010-12-22T15:26:33Z</time>
      </trkpt>
      <trkpt lat="43.70512" lon="3.56125">
        <ele>78.84</ele>
        <time>2010-12-22T15:26:41Z</time>
      </trkpt>
      <trkpt lat="43.70463" lon="3.56156">
        <ele>78.431</ele>
        <time>2010-12-22T15:26:49Z</time>
      </trkpt>
      <trkpt lat="43.70402" lon="3.56191">
        <ele>78.552</ele>
        <time>2010-12-22T15:26:59Z</time>
      </trkpt>
      <trkpt lat="43.70359" lon="3.56229">
        <ele>79.02</ele>
        <time>2010-12-22T15:27:07Z</time>
      </trkpt>
      <trkpt lat="43.70329" lon="3.56274">
        <ele>78.501</ele>
        <time>2010-12-22T15:27:14Z</time>
      </trkpt>
      <trkpt lat="43.703" lon="3.56332">
        <ele>78.469</ele>
        <time>2010-12-22T15:27:22Z</time>
      </trkpt>
      <trkpt lat="43.70267" lon="3.56416">
        <ele>78.068</ele>
        <time>2010-12-22T15:27:33Z</time>
      </trkpt>
      <trkpt lat="43.70252" lon="3.56472">
        <ele>77.954</ele>
        <time>2010-12-22T15:27:40Z</time>
      </trkpt>
      <trkpt lat="43.70227" lon="3.56544">
        <ele>77.887</ele>
        <time>2010-12-22T15:27:49Z</time>
      </trkpt>
      <trkpt lat="43.70203" lon="3.56622">
        <ele>77.635</ele>
        <time>2010-12-22T15:27:59Z</time>
      </trkpt>
      <trkpt lat="43.7018" lon="3.56691">
        <ele>77.761</ele>
        <time>2010-12-22T15:28:08Z</time>
      </trkpt>
      <trkpt lat="43.70157" lon="3.56757">
        <ele>77.905</ele>
        <time>2010-12-22T15:28:17Z</time>
      </trkpt>
      <trkpt lat="43.70125" lon="3.56849">
        <ele>78.802</ele>
        <time>2010-12-22T15:28:30Z</time>
      </trkpt>
      <trkpt lat="43.70098" lon="3.56907">
        <ele>77.729</ele>
        <time>2010-12-22T15:28:39Z</time>
      </trkpt>
      <trkpt lat="43.70067" lon="3.56981">
        <ele>78.555</ele>
        <time>2010-12-22T15:28:50Z</time>
      </trkpt>
      <trkpt lat="43.70044" lon="3.57042">
        <ele>77.825</ele>
        <time>2010-12-22T15:28:59Z</time>
      </trkpt>
      <trkpt lat="43.70019" lon="3.5711">
        <ele>77.728</ele>
        <time>2010-12-22T15:29:09Z</time>
      </trkpt>
      <trkpt lat="43.69992" lon="3.57186">
        <ele>78.214</ele>
        <time>2010-12-22T15:29:20Z</time>
      </trkpt>
      <trkpt lat="43.69961" lon="3.57275">
        <ele>78.567</ele>
        <time>2010-12-22T15:29:33Z</time>
      </trkpt>
      <trkpt lat="43.69942" lon="3.5733">
        <ele>78.218</ele>
        <time>2010-12-22T15:29:41Z</time>
      </trkpt>
      <trkpt lat="43.69908" lon="3.57418">
        <ele>79.084</ele>
        <time>2010-12-22T15:29:54Z</time>
      </trkpt>
      <trkpt lat="43.69873" lon="3.57492">
        <ele>79.058</ele>
        <time>2010-12-22T15:30:05Z</time>
      </trkpt>
      <trkpt lat="43.69844" lon="3.57542">
        <ele>78.658</ele>
        <time>2010-12-22T15:30:13Z</time>
      </trkpt>
      <trkpt lat="43.69804" lon="3.57597">
        <ele>78.506</ele>
        <time>2010-12-22T15:30:23Z</time>
      </trkpt>
      <trkpt lat="43.6976" lon="3.57653">
        <ele>78.493</ele>
        <time>2010-12-22T15:30:34Z</time>
      </trkpt>
      <trkpt lat="43.69712" lon="3.57704">
        <ele>78.174</ele>
        <time>2010-12-22T15:30:45Z</time>
      </trkpt>
      <trkpt lat="43.69665" lon="3.57752">
        <ele>78.792</ele>
        <time>2010-12-22T15:30:55Z</time>
      </trkpt>
      <trkpt lat="43.69608" lon="3.578">
        <ele>77.489</ele>
        <time>2010-12-22T15:31:06Z</time>
      </trkpt>
      <trkpt lat="43.69546" lon="3.57852">
        <ele>76.23</ele>
        <time>2010-12-22T15:31:17Z</time>
      </trkpt>
      <trkpt lat="43.69489" lon="3.57898">
        <ele>73.293</ele>
        <time>2010-12-22T15:31:26Z</time>
      </trkpt>
      <trkpt lat="43.69432" lon="3.57944">
        <ele>73.069</ele>
        <time>2010-12-22T15:31:35Z</time>
      </trkpt>
      <trkpt lat="43.69372" lon="3.57994">
        <ele>72.404</ele>
        <time>2010-12-22T15:31:46Z</time>
      </trkpt>
      <trkpt lat="43.69346" lon="3.58029">
        <ele>73.465</ele>
        <time>2010-12-22T15:31:52Z</time>
      </trkpt>
      <trkpt lat="43.69302" lon="3.58103">
        <ele>73.087</ele>
        <time>2010-12-22T15:32:04Z</time>
      </trkpt>
      <trkpt lat="43.69264" lon="3.5815">
        <ele>73.511</ele>
        <time>2010-12-22T15:32:13Z</time>
      </trkpt>
      <trkpt lat="43.69221" lon="3.58203">
        <ele>74.785</ele>
        <time>2010-12-22T15:32:24Z</time>
      </trkpt>
      <trkpt lat="43.6921" lon="3.58219">
        <ele>75.27</ele>
        <time>2010-12-22T15:32:27Z</time>
      </trkpt>
      <trkpt lat="43.6918" lon="3.58239">
        <ele>75.971</ele>
        <time>2010-12-22T15:32:33Z</time>
      </trkpt>
      <trkpt lat="43.69125" lon="3.58268">
        <ele>76.857</ele>
        <time>2010-12-22T15:32:44Z</time>
      </trkpt>
      <trkpt lat="43.69088" lon="3.58294">
        <ele>78.228</ele>
        <time>2010-12-22T15:32:52Z</time>
      </trkpt>
      <trkpt lat="43.69048" lon="3.58331">
        <ele>79.654</ele>
        <time>2010-12-22T15:33:01Z</time>
      </trkpt>
      <trkpt lat="43.69022" lon="3.58356">
        <ele>80.359</ele>
        <time>2010-12-22T15:33:07Z</time>
      </trkpt>
      <trkpt lat="43.68988" lon="3.58381">
        <ele>81.231</ele>
        <time>2010-12-22T15:33:14Z</time>
      </trkpt>
      <trkpt lat="43.68938" lon="3.58408">
        <ele>80.443</ele>
        <time>2010-12-22T15:33:23Z</time>
      </trkpt>
      <trkpt lat="43.68878" lon="3.58436">
        <ele>81.119</ele>
        <time>2010-12-22T15:33:34Z</time>
      </trkpt>
      <trkpt lat="43.68834" lon="3.5846">
        <ele>81.816</ele>
        <time>2010-12-22T15:33:43Z</time>
      </trkpt>
      <trkpt lat="43.68785" lon="3.58487">
        <ele>81.395</ele>
        <time>2010-12-22T15:33:53Z</time>
      </trkpt>
      <trkpt lat="43.68746" lon="3.5851">
        <ele>81.228</ele>
        <time>2010-12-22T15:34:01Z</time>
      </trkpt>
      <trkpt lat="43.68703" lon="3.58534">
        <ele>81.566</ele>
        <time>2010-12-22T15:34:10Z</time>
      </trkpt>
      <trkpt lat="43.68658" lon="3.58557">
        <ele>81.503</ele>
        <time>2010-12-22T15:34:19Z</time>
      </trkpt>
      <trkpt lat="43.68615" lon="3.58581">
        <ele>82.056</ele>
        <time>2010-12-22T15:34:28Z</time>
      </trkpt>
      <trkpt lat="43.68574" lon="3.58605">
        <ele>82.513</ele>
        <time>2010-12-22T15:34:37Z</time>
      </trkpt>
      <trkpt lat="43.6857" lon="3.58607">
        <ele>82.513</ele>
        <time>2010-12-22T15:34:38Z</time>
      </trkpt>
      <trkpt lat="43.68557" lon="3.58596">
        <ele>82.404</ele>
        <time>2010-12-22T15:34:42Z</time>
      </trkpt>
      <trkpt lat="43.68548" lon="3.58541">
        <ele>81.091</ele>
        <time>2010-12-22T15:34:48Z</time>
      </trkpt>
      <trkpt lat="43.68526" lon="3.58505">
        <ele>80.287</ele>
        <time>2010-12-22T15:34:53Z</time>
      </trkpt>
      <trkpt lat="43.6852" lon="3.58501">
        <ele>80.288</ele>
        <time>2010-12-22T15:34:54Z</time>
      </trkpt>
      <trkpt lat="43.6848" lon="3.58481">
        <ele>79.011</ele>
        <time>2010-12-22T15:35:00Z</time>
      </trkpt>
      <trkpt lat="43.68458" lon="3.58458">
        <ele>77.73</ele>
        <time>2010-12-22T15:35:04Z</time>
      </trkpt>
      <trkpt lat="43.68415" lon="3.58388">
        <ele>76.83</ele>
        <time>2010-12-22T15:35:14Z</time>
      </trkpt>
      <trkpt lat="43.68389" lon="3.58349">
        <ele>76.126</ele>
        <time>2010-12-22T15:35:20Z</time>
      </trkpt>
      <trkpt lat="43.68378" lon="3.58331">
        <ele>76.14</ele>
        <time>2010-12-22T15:35:24Z</time>
      </trkpt>
      <trkpt lat="43.68353" lon="3.58292">
        <ele>76.248</ele>
        <time>2010-12-22T15:35:32Z</time>
      </trkpt>
      <trkpt lat="43.68318" lon="3.5824">
        <ele>76.659</ele>
        <time>2010-12-22T15:35:42Z</time>
      </trkpt>
      <trkpt lat="43.68304" lon="3.58219">
        <ele>76.674</ele>
        <time>2010-12-22T15:35:46Z</time>
      </trkpt>
      <trkpt lat="43.68276" lon="3.58191">
        <ele>76.555</ele>
        <time>2010-12-22T15:35:53Z</time>
      </trkpt>
      <trkpt lat="43.68272" lon="3.58187">
        <ele>76.556</ele>
        <time>2010-12-22T15:35:54Z</time>
      </trkpt>
      <trkpt lat="43.68252" lon="3.58174">
        <ele>77.142</ele>
        <time>2010-12-22T15:35:59Z</time>
      </trkpt>
      <trkpt lat="43.68224" lon="3.58161">
        <ele>77.703</ele>
        <time>2010-12-22T15:36:07Z</time>
      </trkpt>
      <trkpt lat="43.68212" lon="3.58152">
        <ele>77.424</ele>
        <time>2010-12-22T15:36:11Z</time>
      </trkpt>
      <trkpt lat="43.68205" lon="3.58149">
        <ele>77.41</ele>
        <time>2010-12-22T15:36:13Z</time>
      </trkpt>
      <trkpt lat="43.68193" lon="3.58143">
        <ele>77.493</ele>
        <time>2010-12-22T15:36:16Z</time>
      </trkpt>
      <trkpt lat="43.6817" lon="3.58139">
        <ele>77.557</ele>
        <time>2010-12-22T15:36:22Z</time>
      </trkpt>
      <trkpt lat="43.68161" lon="3.58165">
        <ele>77.518</ele>
        <time>2010-12-22T15:36:28Z</time>
      </trkpt>
      <trkpt lat="43.68156" lon="3.5818">
        <ele>77.344</ele>
        <time>2010-12-22T15:36:33Z</time>
      </trkpt>
      <trkpt lat="43.68156" lon="3.58179">
        <ele>77.025</ele>
        <time>2010-12-22T15:36:37Z</time>
      </trkpt>
    </trkseg>
  </trk>
</gpx>